Observation data for Lake McClellan 2NW on 08/14/2019      Previous  Date  Next       Current Mesonet Observations  Soil Data  Daily Summary Page  Observations in Plain Language
KMC5 140500Z 04007KT 22/19 A3021 RMK A01 T02240186  RH  079%=      5-min Rain = 0
KMC5 140501Z 04007KT 22/19 A3021 RMK A01 T02240186  RH  079%=      5-min Rain = 0
KMC5 140502Z 04006KT 22/19 A3021 RMK A01 T02240186  RH  079%=      5-min Rain = 0
KMC5 140503Z 04006KT 22/19 A3021 RMK A01 T02240186  RH  079%=      5-min Rain = 0
KMC5 140504Z 04006KT 22/19 A3021 RMK A01 T02230186  RH  079%=      5-min Rain = 0
KMC5 140505Z 04007KT 22/19 A3021 RMK A01 T02230186  RH  080%=      5-min Rain = 0
KMC5 140506Z 04007KT 22/19 A3021 RMK A01 T02230186  RH  080%=      5-min Rain = 0
KMC5 140507Z 04007KT 22/19 A3021 RMK A01 T02230186  RH  080%=      5-min Rain = 0
KMC5 140508Z 05007KT 22/19 A3021 RMK A01 T02230186  RH  079%=      5-min Rain = 0
KMC5 140509Z 04007KT 22/19 A3021 RMK A01 T02230186  RH  079%=      5-min Rain = 0
KMC5 140510Z 05007KT 22/19 A3021 RMK A01 T02240186  RH  079%=      5-min Rain = 0
KMC5 140526Z 04010KT 22/19 A3021 RMK A01 T02220188  RH  081%=      5-min Rain = 0
KMC5 140527Z 02016G21KT 22/19 A3022 RMK A01 T02220188  RH  081%=      5-min Rain = 0
KMC5 140528Z 02019G25KT 22/19 A3022 RMK A01 T02240187  RH  080%=      5-min Rain = 0
KMC5 140529Z 02021KT 23/19 A3022 RMK A01 T02250186  RH  078%=      5-min Rain = 0
KMC5 140530Z 03019KT 22/19 A3022 RMK A01 T02240185  RH  079%=      5-min Rain = 0
KMC5 140531Z 04020KT 22/18 A3022 RMK A01 T02220183  RH  078%=      5-min Rain = 0
KMC5 140532Z 04021KT 22/18 A3022 RMK A01 T02200181  RH  078%=      5-min Rain = 0
KMC5 140533Z 04018G26KT 22/18 A3022 RMK A01 T02200180  RH  078%=      5-min Rain = 0
KMC5 140534Z 04022KT 22/17 A3022 RMK A01 T02180174  RH  076%=      5-min Rain = 0
KMC5 140535Z 04021KT 22/17 A3022 RMK A01 T02160169  RH  075%=      5-min Rain = 0
KMC5 140536Z 04020KT 21/17 A3023 RMK A01 T02140168  RH  075%=      5-min Rain = 0
KMC5 140537Z 05020KT 21/17 A3023 RMK A01 T02130166  RH  075%=      5-min Rain = 0
KMC5 140538Z 04020KT 21/16 A3023 RMK A01 T02120160  RH  072%=      5-min Rain = 0
KMC5 140539Z 04021G26KT 21/16 A3023 RMK A01 T02110159  RH  072%=      5-min Rain = 0
KMC5 140540Z 04020G25KT 21/16 A3023 RMK A01 T02110157  RH  072%=      5-min Rain = 0
KMC5 140541Z 04020KT 21/16 A3022 RMK A01 T02100157  RH  072%=      5-min Rain = 0
KMC5 140542Z 04018G23KT 21/16 A3022 RMK A01 T02090156  RH  072%=      5-min Rain = 0
KMC5 140543Z 04019KT 21/16 A3022 RMK A01 T02080155  RH  072%=      5-min Rain = 0
KMC5 140544Z 04021KT 21/15 A3022 RMK A01 T02070153  RH  071%=      5-min Rain = 0
KMC5 140545Z 04022KT 21/15 A3022 RMK A01 T02070152  RH  071%=      5-min Rain = 0
KMC5 140546Z 04018G24KT 21/15 A3022 RMK A01 T02060152  RH  071%=      5-min Rain = 0
KMC5 140547Z 05017KT 21/15 A3023 RMK A01 T02060153  RH  071%=      5-min Rain = 0
KMC5 140548Z 05018KT 21/15 A3023 RMK A01 T02050152  RH  071%=      5-min Rain = 0
KMC5 140549Z 05018KT 21/15 A3023 RMK A01 T02050151  RH  071%=      5-min Rain = 0
KMC5 140550Z 05018KT 20/15 A3022 RMK A01 T02040151  RH  071%=      5-min Rain = 0
KMC5 140551Z 05016KT 20/15 A3022 RMK A01 T02040151  RH  071%=      5-min Rain = 0
KMC5 140552Z 04017KT 20/15 A3022 RMK A01 T02030151  RH  072%=      5-min Rain = 0
KMC5 140553Z 05017KT 20/15 A3022 RMK A01 T02030150  RH  072%=      5-min Rain = 0
KMC5 140554Z 05015KT 20/15 A3022 RMK A01 T02030150  RH  072%=      5-min Rain = 0
KMC5 140555Z 05016G21KT 20/15 A3022 RMK A01 T02020151  RH  072%=      5-min Rain = 0
KMC5 140556Z 04019G25KT 20/15 A3022 RMK A01 T02020149  RH  071%=      5-min Rain = 0
KMC5 140557Z 05020KT 20/15 A3022 RMK A01 T02020147  RH  070%=      5-min Rain = 0
KMC5 140558Z 05017KT 20/15 A3022 RMK A01 T02020146  RH  070%=      5-min Rain = 0
KMC5 140559Z 04018KT 20/15 A3022 RMK A01 T02020146  RH  070%=      5-min Rain = 0
KMC5 140600Z 04017KT 20/14 A3022 RMK A01 T02020144  RH  069%=      5-min Rain = 0
KMC5 140601Z 04018KT 20/14 A3022 RMK A01 T02020144  RH  069%=      5-min Rain = 0
KMC5 140602Z 04017KT 20/14 A3022 RMK A01 T02020143  RH  069%=      5-min Rain = 0
KMC5 140603Z 05019KT 20/14 A3022 RMK A01 T02010143  RH  069%=      5-min Rain = 0
KMC5 140604Z 05016G21KT 20/14 A3022 RMK A01 T02010142  RH  069%=      5-min Rain = 0
KMC5 140605Z 05018KT 20/14 A3022 RMK A01 T02010141  RH  069%=      5-min Rain = 0
KMC5 140606Z 04019G24KT 20/14 A3022 RMK A01 T02000140  RH  068%=      5-min Rain = 0
KMC5 140607Z 04021KT 20/14 A3022 RMK A01 T02010139  RH  068%=      5-min Rain = 0
KMC5 140608Z 04019KT 20/14 A3022 RMK A01 T02010139  RH  068%=      5-min Rain = 0
KMC5 140609Z 04018KT 20/14 A3022 RMK A01 T02000139  RH  068%=      5-min Rain = 0
KMC5 140610Z 04021KT 20/14 A3022 RMK A01 T02000138  RH  068%=      5-min Rain = 0
KMC5 140611Z 04019KT 20/14 A3022 RMK A01 T02000138  RH  068%=      5-min Rain = 0
KMC5 140612Z 04018KT 20/14 A3023 RMK A01 T01990138  RH  068%=      5-min Rain = 0
KMC5 140613Z 04017KT 20/14 A3023 RMK A01 T01980138  RH  068%=      5-min Rain = 0
KMC5 140614Z 04019KT 20/14 A3022 RMK A01 T01980138  RH  068%=      5-min Rain = 0
KMC5 140615Z 04019KT 20/14 A3022 RMK A01 T01980138  RH  068%=      5-min Rain = 0
KMC5 140616Z 04021KT 20/14 A3022 RMK A01 T01970137  RH  068%=      5-min Rain = 0
KMC5 140617Z 04020KT 20/14 A3022 RMK A01 T01970136  RH  068%=      5-min Rain = 0
KMC5 140618Z 04018KT 20/14 A3022 RMK A01 T01970136  RH  068%=      5-min Rain = 0
KMC5 140619Z 04015KT 20/14 A3022 RMK A01 T01960136  RH  068%=      5-min Rain = 0
KMC5 140620Z 04015KT 20/14 A3022 RMK A01 T01950136  RH  069%=      5-min Rain = 0
KMC5 140621Z 04019KT 19/14 A3022 RMK A01 T01940135  RH  069%=      5-min Rain = 0
KMC5 140622Z 04019KT 19/14 A3022 RMK A01 T01940135  RH  069%=      5-min Rain = 0
KMC5 140623Z 03019G25KT 19/14 A3022 RMK A01 T01940135  RH  069%=      5-min Rain = 0
KMC5 140624Z 03017KT 19/14 A3022 RMK A01 T01940135  RH  069%=      5-min Rain = 0
KMC5 140625Z 04018KT 19/14 A3022 RMK A01 T01930135  RH  069%=      5-min Rain = 0
KMC5 140626Z 04018KT 19/14 A3022 RMK A01 T01930135  RH  069%=      5-min Rain = 0
KMC5 140627Z 04015KT 19/14 A3022 RMK A01 T01930135  RH  069%=      5-min Rain = 0
KMC5 140628Z 04017KT 19/14 A3022 RMK A01 T01920135  RH  069%=      5-min Rain = 0
KMC5 140629Z 04017KT 19/14 A3022 RMK A01 T01920135  RH  069%=      5-min Rain = 0
KMC5 140630Z 04017KT 19/14 A3022 RMK A01 T01920135  RH  069%=      5-min Rain = 0
KMC5 140631Z 04015KT 19/14 A3022 RMK A01 T01920135  RH  070%=      5-min Rain = 0
KMC5 140632Z 04015KT 19/14 A3022 RMK A01 T01920135  RH  070%=      5-min Rain = 0
KMC5 140633Z 04014KT 19/14 A3022 RMK A01 T01910135  RH  070%=      5-min Rain = 0
KMC5 140634Z 04013KT 19/14 A3022 RMK A01 T01910135  RH  070%=      5-min Rain = 0
KMC5 140635Z 04014KT 19/14 A3022 RMK A01 T01900136  RH  071%=      5-min Rain = 0
KMC5 140636Z 04012KT 19/14 A3022 RMK A01 T01890135  RH  071%=      5-min Rain = 0
KMC5 140637Z 04013KT 19/14 A3022 RMK A01 T01890135  RH  071%=      5-min Rain = 0
KMC5 140638Z 04012KT 19/14 A3022 RMK A01 T01890135  RH  071%=      5-min Rain = 0
KMC5 140639Z 04012KT 19/14 A3022 RMK A01 T01880135  RH  071%=      5-min Rain = 0
KMC5 140640Z 04013KT 19/14 A3022 RMK A01 T01880135  RH  071%=      5-min Rain = 0
KMC5 140641Z 04012KT 19/14 A3022 RMK A01 T01880135  RH  071%=      5-min Rain = 0
KMC5 140642Z 04013KT 19/14 A3022 RMK A01 T01880135  RH  071%=      5-min Rain = 0
KMC5 140643Z 04013KT 19/13 A3022 RMK A01 T01880134  RH  071%=      5-min Rain = 0
KMC5 140644Z 04012KT 19/13 A3022 RMK A01 T01880134  RH  071%=      5-min Rain = 0
KMC5 140645Z 03013KT 19/14 A3021 RMK A01 T01870135  RH  071%=      5-min Rain = 0
KMC5 140646Z 04012KT 19/14 A3022 RMK A01 T01870135  RH  071%=      5-min Rain = 0
KMC5 140647Z 04013KT 19/13 A3022 RMK A01 T01870133  RH  071%=      5-min Rain = 0
KMC5 140648Z 04013KT 19/13 A3022 RMK A01 T01870133  RH  071%=      5-min Rain = 0
KMC5 140649Z 03016KT 19/13 A3021 RMK A01 T01870133  RH  070%=      5-min Rain = 0
KMC5 140650Z 04012KT 19/13 A3021 RMK A01 T01880133  RH  070%=      5-min Rain = 0
KMC5 140651Z 03011KT 19/13 A3021 RMK A01 T01880133  RH  071%=      5-min Rain = 0
KMC5 140652Z 03011KT 19/13 A3021 RMK A01 T01870134  RH  071%=      5-min Rain = 0
KMC5 140653Z 03012KT 19/13 A3021 RMK A01 T01870134  RH  071%=      5-min Rain = 0
KMC5 140654Z 03012KT 19/13 A3021 RMK A01 T01860133  RH  071%=      5-min Rain = 0
KMC5 140655Z 03013KT 19/13 A3021 RMK A01 T01860133  RH  071%=      5-min Rain = 0
KMC5 140656Z 03014KT 19/13 A3021 RMK A01 T01860133  RH  071%=      5-min Rain = 0
KMC5 140657Z 03013KT 19/13 A3021 RMK A01 T01860132  RH  071%=      5-min Rain = 0
KMC5 140658Z 02012KT 19/13 A3021 RMK A01 T01860133  RH  071%=      5-min Rain = 0
KMC5 140659Z 02014KT 19/13 A3021 RMK A01 T01860133  RH  071%=      5-min Rain = 0
KMC5 140700Z 02012KT 19/13 A3021 RMK A01 T01860133  RH  071%=      5-min Rain = 0
KMC5 140701Z 03011KT 19/13 A3021 RMK A01 T01850134  RH  072%=      5-min Rain = 0
KMC5 140702Z 03013KT 19/13 A3021 RMK A01 T01850133  RH  072%=      5-min Rain = 0
KMC5 140703Z 03013KT 18/13 A3021 RMK A01 T01840133  RH  072%=      5-min Rain = 0
KMC5 140704Z 03012KT 19/13 A3021 RMK A01 T01850133  RH  072%=      5-min Rain = 0
KMC5 140705Z 03011KT 19/13 A3021 RMK A01 T01850133  RH  072%=      5-min Rain = 0
KMC5 140706Z 04012KT 18/13 A302 RMK A01 T01840133  RH  072%=      5-min Rain = 0
KMC5 140707Z 03013KT 18/13 A302 RMK A01 T01840133  RH  072%=      5-min Rain = 0
KMC5 140708Z 03013KT 18/13 A302 RMK A01 T01840132  RH  072%=      5-min Rain = 0
KMC5 140709Z 04012KT 18/13 A302 RMK A01 T01840132  RH  072%=      5-min Rain = 0
KMC5 140710Z 04013KT 18/13 A302 RMK A01 T01840132  RH  072%=      5-min Rain = 0
KMC5 140711Z 04011KT 18/13 A302 RMK A01 T01840133  RH  072%=      5-min Rain = 0
KMC5 140712Z 04012KT 18/13 A302 RMK A01 T01840133  RH  072%=      5-min Rain = 0
KMC5 140713Z 04013KT 18/13 A302 RMK A01 T01830133  RH  072%=      5-min Rain = 0
KMC5 140714Z 04011KT 18/13 A302 RMK A01 T01830132  RH  072%=      5-min Rain = 0
KMC5 140715Z 04011G16KT 18/13 A302 RMK A01 T01830132  RH  072%=      5-min Rain = 0
KMC5 140716Z 05011KT 18/13 A302 RMK A01 T01830132  RH  072%=      5-min Rain = 0
KMC5 140717Z 04011KT 18/13 A302 RMK A01 T01840133  RH  072%=      5-min Rain = 0
KMC5 140718Z 04012KT 18/13 A302 RMK A01 T01830133  RH  073%=      5-min Rain = 0
KMC5 140719Z 04011KT 18/13 A302 RMK A01 T01820132  RH  072%=      5-min Rain = 0
KMC5 140720Z 04012KT 18/13 A302 RMK A01 T01830132  RH  072%=      5-min Rain = 0
KMC5 140721Z 04011KT 18/13 A302 RMK A01 T01840132  RH  072%=      5-min Rain = 0
KMC5 140722Z 04010KT 18/13 A302 RMK A01 T01840133  RH  072%=      5-min Rain = 0
KMC5 140723Z 04011KT 18/13 A302 RMK A01 T01840133  RH  072%=      5-min Rain = 0
KMC5 140724Z 04011KT 18/13 A3021 RMK A01 T01840133  RH  072%=      5-min Rain = 0
KMC5 140725Z 04011KT 18/13 A3021 RMK A01 T01830133  RH  072%=      5-min Rain = 0
KMC5 140726Z 03010KT 18/13 A3021 RMK A01 T01830133  RH  073%=      5-min Rain = 0
KMC5 140727Z 03011KT 18/13 A3021 RMK A01 T01830133  RH  073%=      5-min Rain = 0
KMC5 140728Z 03011KT 18/13 A3021 RMK A01 T01830132  RH  072%=      5-min Rain = 0
KMC5 140729Z 02010KT 18/13 A3021 RMK A01 T01830132  RH  072%=      5-min Rain = 0
KMC5 140730Z 02009KT 18/13 A3021 RMK A01 T01830133  RH  073%=      5-min Rain = 0
KMC5 140731Z 02010KT 18/13 A3021 RMK A01 T01820133  RH  073%=      5-min Rain = 0
KMC5 140732Z 02011KT 18/13 A3021 RMK A01 T01820133  RH  073%=      5-min Rain = 0
KMC5 140733Z 02010KT 18/13 A3022 RMK A01 T01820133  RH  073%=      5-min Rain = 0
KMC5 140734Z 02009KT 18/13 A3022 RMK A01 T01820133  RH  073%=      5-min Rain = 0
KMC5 140735Z 01010KT 18/13 A3022 RMK A01 T01820134  RH  073%=      5-min Rain = 0
KMC5 140736Z 01011KT 18/13 A3021 RMK A01 T01820134  RH  073%=      5-min Rain = 0
KMC5 140737Z 01009KT 18/13 A3021 RMK A01 T01820133  RH  073%=      5-min Rain = 0
KMC5 140738Z 01009KT 18/13 A3021 RMK A01 T01820134  RH  074%=      5-min Rain = 0
KMC5 140739Z 01009KT 18/13 A3021 RMK A01 T01810134  RH  074%=      5-min Rain = 0
KMC5 140740Z 01010KT 18/13 A3021 RMK A01 T01810134  RH  074%=      5-min Rain = 0
KMC5 140741Z 01010KT 18/13 A3021 RMK A01 T01810134  RH  074%=      5-min Rain = 0
KMC5 140742Z 01009KT 18/13 A3021 RMK A01 T01810134  RH  074%=      5-min Rain = 0
KMC5 140743Z 01009KT 18/13 A3021 RMK A01 T01810134  RH  074%=      5-min Rain = 0
KMC5 140744Z 02009KT 18/13 A3021 RMK A01 T01800134  RH  074%=      5-min Rain = 0
KMC5 140745Z 01010KT 18/13 A3021 RMK A01 T01800134  RH  074%=      5-min Rain = 0
KMC5 140746Z 02010KT 18/13 A3021 RMK A01 T01800134  RH  074%=      5-min Rain = 0
KMC5 140747Z 02011KT 18/13 A3021 RMK A01 T01800134  RH  074%=      5-min Rain = 0
KMC5 140748Z 02011KT 18/13 A3021 RMK A01 T01800134  RH  074%=      5-min Rain = 0
KMC5 140749Z 02010KT 18/13 A3021 RMK A01 T01800134  RH  074%=      5-min Rain = 0
KMC5 140750Z 02010KT 18/13 A3021 RMK A01 T01800134  RH  074%=      5-min Rain = 0
KMC5 140751Z 02011KT 18/13 A302 RMK A01 T01800134  RH  074%=      5-min Rain = 0
KMC5 140752Z 02011KT 18/13 A302 RMK A01 T01800134  RH  074%=      5-min Rain = 0
KMC5 140753Z 02011KT 18/13 A302 RMK A01 T01800134  RH  074%=      5-min Rain = 0
KMC5 140754Z 02012KT 18/13 A302 RMK A01 T01800134  RH  074%=      5-min Rain = 0
KMC5 140755Z 02012KT 18/13 A302 RMK A01 T01810134  RH  074%=      5-min Rain = 0
KMC5 140756Z 03012KT 18/13 A302 RMK A01 T01810134  RH  074%=      5-min Rain = 0
KMC5 140757Z 03012KT 18/13 A302 RMK A01 T01810134  RH  074%=      5-min Rain = 0
KMC5 140758Z 03011KT 18/13 A302 RMK A01 T01810134  RH  074%=      5-min Rain = 0
KMC5 140759Z 03010KT 18/14 A302 RMK A01 T01810135  RH  074%=      5-min Rain = 0
KMC5 140800Z 03010KT 18/14 A302 RMK A01 T01800135  RH  074%=      5-min Rain = 0
KMC5 140801Z 03010KT 18/14 A302 RMK A01 T01800135  RH  075%=      5-min Rain = 0
KMC5 140802Z 03010KT 18/13 A302 RMK A01 T01800134  RH  075%=      5-min Rain = 0
KMC5 140803Z 03010KT 18/13 A302 RMK A01 T01800134  RH  075%=      5-min Rain = 0
KMC5 140804Z 03010KT 18/14 A302 RMK A01 T01800135  RH  075%=      5-min Rain = 0
KMC5 140805Z 03010KT 18/14 A302 RMK A01 T01800135  RH  075%=      5-min Rain = 0
KMC5 140806Z 03010KT 18/13 A302 RMK A01 T01790134  RH  075%=      5-min Rain = 0
KMC5 140807Z 03010KT 18/13 A302 RMK A01 T01800134  RH  075%=      5-min Rain = 0
KMC5 140808Z 03010KT 18/13 A302 RMK A01 T01800134  RH  075%=      5-min Rain = 0
KMC5 140809Z 03009KT 18/13 A3021 RMK A01 T01800134  RH  075%=      5-min Rain = 0
KMC5 140810Z 02009KT 18/14 A3021 RMK A01 T01800135  RH  075%=      5-min Rain = 0
KMC5 140811Z 02008KT 18/14 A3021 RMK A01 T01800135  RH  075%=      5-min Rain = 0
KMC5 140812Z 02008KT 18/14 A3021 RMK A01 T01790135  RH  075%=      5-min Rain = 0
KMC5 140813Z 02009KT 18/14 A302 RMK A01 T01790135  RH  075%=      5-min Rain = 0
KMC5 140814Z 02009KT 18/14 A302 RMK A01 T01780135  RH  076%=      5-min Rain = 0
KMC5 140815Z 02009KT 18/14 A302 RMK A01 T01780135  RH  076%=      5-min Rain = 0
KMC5 140816Z 02010KT 18/14 A302 RMK A01 T01780135  RH  076%=      5-min Rain = 0
KMC5 140817Z 02010KT 18/14 A302 RMK A01 T01780135  RH  076%=      5-min Rain = 0
KMC5 140818Z 02010KT 18/14 A302 RMK A01 T01780135  RH  076%=      5-min Rain = 0
KMC5 140819Z 02010KT 18/14 A302 RMK A01 T01780135  RH  076%=      5-min Rain = 0
KMC5 140820Z 03010KT 18/14 A302 RMK A01 T01780135  RH  076%=      5-min Rain = 0
KMC5 140821Z 03010KT 18/14 A302 RMK A01 T01780135  RH  076%=      5-min Rain = 0
KMC5 140822Z 03009KT 18/14 A302 RMK A01 T01780135  RH  076%=      5-min Rain = 0
KMC5 140823Z 03011KT 18/14 A302 RMK A01 T01780135  RH  076%=      5-min Rain = 0
KMC5 140824Z 03013KT 18/14 A302 RMK A01 T01780135  RH  076%=      5-min Rain = 0
KMC5 140825Z 03012KT 18/14 A3019 RMK A01 T01800135  RH  075%=      5-min Rain = 0
KMC5 140826Z 03010KT 18/14 A302 RMK A01 T01810136  RH  075%=      5-min Rain = 0
KMC5 140827Z 03010KT 18/14 A302 RMK A01 T01810136  RH  075%=      5-min Rain = 0
KMC5 140828Z 03011KT 18/14 A302 RMK A01 T01800136  RH  075%=      5-min Rain = 0
KMC5 140829Z 03010KT 18/14 A302 RMK A01 T01800136  RH  075%=      5-min Rain = 0
KMC5 140830Z 03009KT 18/14 A302 RMK A01 T01800136  RH  075%=      5-min Rain = 0
KMC5 140831Z 03009KT 18/14 A302 RMK A01 T01790136  RH  076%=      5-min Rain = 0
KMC5 140832Z 03009KT 18/14 A302 RMK A01 T01790136  RH  076%=      5-min Rain = 0
KMC5 140833Z 03009KT 18/14 A302 RMK A01 T01780136  RH  076%=      5-min Rain = 0
KMC5 140834Z 03009KT 18/14 A302 RMK A01 T01790136  RH  076%=      5-min Rain = 0
KMC5 140835Z 02009KT 18/14 A302 RMK A01 T01780137  RH  077%=      5-min Rain = 0
KMC5 140836Z 02009KT 18/14 A302 RMK A01 T01780137  RH  077%=      5-min Rain = 0
KMC5 140837Z 02009KT 18/14 A302 RMK A01 T01770137  RH  077%=      5-min Rain = 0
KMC5 140838Z 02009KT 18/14 A3019 RMK A01 T01770137  RH  077%=      5-min Rain = 0
KMC5 140839Z 02009KT 18/14 A3019 RMK A01 T01760137  RH  078%=      5-min Rain = 0
KMC5 140840Z 02009KT 18/14 A3019 RMK A01 T01760137  RH  078%=      5-min Rain = 0
KMC5 140841Z 02009KT 18/14 A3019 RMK A01 T01750137  RH  078%=      5-min Rain = 0
KMC5 140842Z 02009KT 18/14 A3019 RMK A01 T01750137  RH  078%=      5-min Rain = 0
KMC5 140843Z 02010KT 18/14 A3019 RMK A01 T01750137  RH  078%=      5-min Rain = 0
KMC5 140844Z 02010KT 18/14 A3019 RMK A01 T01750137  RH  078%=      5-min Rain = 0
KMC5 140845Z 03011KT 18/14 A3019 RMK A01 T01750137  RH  078%=      5-min Rain = 0
KMC5 140846Z 02011KT 18/14 A3019 RMK A01 T01750138  RH  078%=      5-min Rain = 0
KMC5 140847Z 02011KT 18/14 A3019 RMK A01 T01750138  RH  078%=      5-min Rain = 0
KMC5 140848Z 02011KT 18/14 A3019 RMK A01 T01760138  RH  078%=      5-min Rain = 0
KMC5 140849Z 02011KT 18/14 A3019 RMK A01 T01760138  RH  079%=      5-min Rain = 0
KMC5 140850Z 02011KT 18/14 A302 RMK A01 T01760138  RH  079%=      5-min Rain = 0
KMC5 140851Z 02010KT 18/14 A302 RMK A01 T01760139  RH  079%=      5-min Rain = 0
KMC5 140852Z 02010KT 18/14 A302 RMK A01 T01760139  RH  079%=      5-min Rain = 0
KMC5 140853Z 02010KT 18/14 A3019 RMK A01 T01750139  RH  079%=      5-min Rain = 0
KMC5 140854Z 02010KT 18/14 A3019 RMK A01 T01750139  RH  079%=      5-min Rain = 0
KMC5 140855Z 02010KT 18/14 A3019 RMK A01 T01750139  RH  079%=      5-min Rain = 0
KMC5 140856Z 02010KT 18/14 A3019 RMK A01 T01750139  RH  079%=      5-min Rain = 0
KMC5 140857Z 02010KT 17/14 A3019 RMK A01 T01740139  RH  080%=      5-min Rain = 0
KMC5 140858Z 02010KT 18/14 A302 RMK A01 T01750140  RH  080%=      5-min Rain = 0
KMC5 140859Z 02011KT 18/14 A302 RMK A01 T01750140  RH  080%=      5-min Rain = 0
KMC5 140900Z 02010KT 17/14 A302 RMK A01 T01740140  RH  080%=      5-min Rain = 0
KMC5 140901Z 01010KT 17/14 A302 RMK A01 T01740140  RH  080%=      5-min Rain = 0
KMC5 140902Z 01010KT 18/14 A302 RMK A01 T01750140  RH  080%=      5-min Rain = 0
KMC5 140903Z 01010KT 17/14 A302 RMK A01 T01740140  RH  080%=      5-min Rain = 0
KMC5 140904Z 01010KT 17/14 A302 RMK A01 T01740140  RH  080%=      5-min Rain = 0
KMC5 140905Z 01009KT 17/14 A302 RMK A01 T01740140  RH  081%=      5-min Rain = 0
KMC5 140906Z 00008KT 17/14 A302 RMK A01 T01740140  RH  081%=      5-min Rain = 0
KMC5 140907Z 36007KT 17/14 A302 RMK A01 T01730140  RH  081%=      5-min Rain = 0
KMC5 140908Z 36007KT 17/14 A302 RMK A01 T01730140  RH  081%=      5-min Rain = 0
KMC5 140909Z 36007KT 17/14 A302 RMK A01 T01720140  RH  081%=      5-min Rain = 0
KMC5 140910Z 00008KT 17/14 A3021 RMK A01 T01720140  RH  081%=      5-min Rain = 0
KMC5 140911Z 35007KT 17/14 A3021 RMK A01 T01730140  RH  081%=      5-min Rain = 0
KMC5 140912Z 35007KT 17/14 A3021 RMK A01 T01730140  RH  081%=      5-min Rain = 0
KMC5 140913Z 35008KT 17/14 A3021 RMK A01 T01730139  RH  081%=      5-min Rain = 0
KMC5 140914Z 35008KT 17/14 A3021 RMK A01 T01730140  RH  081%=      5-min Rain = 0
KMC5 140915Z 36008KT 17/14 A3021 RMK A01 T01730140  RH  081%=      5-min Rain = 0
KMC5 140916Z 35009KT 17/14 A3021 RMK A01 T01720140  RH  081%=      5-min Rain = 0
KMC5 140917Z 36009KT 17/14 A3021 RMK A01 T01720140  RH  082%=      5-min Rain = 0
KMC5 140918Z 36008KT 17/14 A3021 RMK A01 T01720140  RH  081%=      5-min Rain = 0
KMC5 140919Z 00008KT 17/14 A3021 RMK A01 T01720140  RH  082%=      5-min Rain = 0
KMC5 140920Z 36008KT 17/14 A3021 RMK A01 T01720141  RH  082%=      5-min Rain = 0
KMC5 140921Z 00008KT 17/14 A3021 RMK A01 T01720141  RH  082%=      5-min Rain = 0
KMC5 140922Z 00008KT 17/14 A3022 RMK A01 T01710141  RH  082%=      5-min Rain = 0
KMC5 140923Z 01008KT 17/14 A3022 RMK A01 T01710141  RH  082%=      5-min Rain = 0
KMC5 140924Z 01008KT 17/14 A3022 RMK A01 T01710141  RH  083%=      5-min Rain = 0
KMC5 140925Z 01008KT 17/14 A3022 RMK A01 T01700141  RH  083%=      5-min Rain = 0
KMC5 140926Z 01008KT 17/14 A3022 RMK A01 T01700141  RH  083%=      5-min Rain = 0
KMC5 140927Z 01008KT 17/14 A3021 RMK A01 T01700141  RH  083%=      5-min Rain = 0
KMC5 140928Z 01008KT 17/14 A3021 RMK A01 T01700141  RH  083%=      5-min Rain = 0
KMC5 140929Z 01009KT 17/14 A3021 RMK A01 T01700142  RH  083%=      5-min Rain = 0
KMC5 140930Z 01009KT 17/14 A3021 RMK A01 T01700142  RH  084%=      5-min Rain = 0
KMC5 140931Z 01009KT 17/14 A3021 RMK A01 T01700142  RH  084%=      5-min Rain = 0
KMC5 140932Z 01009KT 17/14 A3021 RMK A01 T01700142  RH  084%=      5-min Rain = 0
KMC5 140933Z 01009KT 17/14 A3021 RMK A01 T01700142  RH  084%=      5-min Rain = 0
KMC5 140934Z 01010KT 17/14 A3021 RMK A01 T01700142  RH  084%=      5-min Rain = 0
KMC5 140935Z 01010KT 17/14 A3021 RMK A01 T01700142  RH  084%=      5-min Rain = 0
KMC5 140936Z 01009KT 17/14 A3021 RMK A01 T01690142  RH  084%=      5-min Rain = 0
KMC5 140937Z 01009KT 17/14 A3021 RMK A01 T01690142  RH  084%=      5-min Rain = 0
KMC5 140938Z 01009KT 17/14 A3021 RMK A01 T01690142  RH  084%=      5-min Rain = 0
KMC5 140939Z 01008KT 17/14 A3021 RMK A01 T01700142  RH  084%=      5-min Rain = 0
KMC5 140940Z 02008KT 17/14 A3021 RMK A01 T01690142  RH  084%=      5-min Rain = 0
KMC5 140941Z 02008KT 17/14 A3021 RMK A01 T01700142  RH  084%=      5-min Rain = 0
KMC5 140942Z 02007KT 17/14 A3021 RMK A01 T01700142  RH  084%=      5-min Rain = 0
KMC5 140943Z 02007KT 17/14 A3021 RMK A01 T01700143  RH  084%=      5-min Rain = 0
KMC5 140944Z 02007KT 17/14 A3021 RMK A01 T01700142  RH  084%=      5-min Rain = 0
KMC5 140945Z 02007KT 17/14 A3021 RMK A01 T01700142  RH  084%=      5-min Rain = 0
KMC5 140946Z 02007KT 17/14 A3021 RMK A01 T01700143  RH  084%=      5-min Rain = 0
KMC5 140947Z 02007KT 17/14 A3021 RMK A01 T01700143  RH  084%=      5-min Rain = 0
KMC5 140948Z 02007KT 17/14 A3021 RMK A01 T01690142  RH  084%=      5-min Rain = 0
KMC5 140949Z 01006KT 17/14 A3021 RMK A01 T01700143  RH  084%=      5-min Rain = 0
KMC5 140950Z 01007KT 17/14 A3021 RMK A01 T01690142  RH  084%=      5-min Rain = 0
KMC5 140951Z 01006KT 17/14 A3021 RMK A01 T01690142  RH  084%=      5-min Rain = 0
KMC5 140952Z 01006KT 17/14 A3021 RMK A01 T01690142  RH  084%=      5-min Rain = 0
KMC5 140953Z 00006KT 17/14 A3021 RMK A01 T01690142  RH  084%=      5-min Rain = 0
KMC5 140954Z 00005KT 17/14 A3021 RMK A01 T01690142  RH  084%=      5-min Rain = 0
KMC5 140955Z 00005KT 17/14 A3021 RMK A01 T01690143  RH  084%=      5-min Rain = 0
KMC5 140956Z 00005KT 17/14 A3021 RMK A01 T01690143  RH  084%=      5-min Rain = 0
KMC5 140957Z 36005KT 17/14 A3021 RMK A01 T01690143  RH  084%=      5-min Rain = 0
KMC5 140958Z 35005KT 17/14 A3021 RMK A01 T01690143  RH  084%=      5-min Rain = 0
KMC5 140959Z 35005KT 17/14 A3021 RMK A01 T01690143  RH  084%=      5-min Rain = 0
KMC5 141000Z 35005KT 17/14 A3021 RMK A01 T01690143  RH  085%=      5-min Rain = 0
KMC5 141001Z 35005KT 17/14 A3021 RMK A01 T01690143  RH  085%=      5-min Rain = 0
KMC5 141002Z 36005KT 17/14 A3021 RMK A01 T01690143  RH  085%=      5-min Rain = 0
KMC5 141003Z 36005KT 17/14 A3021 RMK A01 T01690143  RH  085%=      5-min Rain = 0
KMC5 141004Z 00006KT 17/14 A3021 RMK A01 T01680143  RH  085%=      5-min Rain = 0
KMC5 141005Z 00006KT 17/14 A3021 RMK A01 T01690143  RH  085%=      5-min Rain = 0
KMC5 141006Z 00006KT 17/14 A3021 RMK A01 T01690143  RH  085%=      5-min Rain = 0
KMC5 141007Z 01006KT 17/14 A3021 RMK A01 T01690143  RH  085%=      5-min Rain = 0
KMC5 141008Z 01006KT 17/14 A3022 RMK A01 T01690143  RH  085%=      5-min Rain = 0
KMC5 141009Z 00006KT 17/14 A3022 RMK A01 T01690143  RH  085%=      5-min Rain = 0
KMC5 141010Z 00006KT 17/14 A3022 RMK A01 T01690143  RH  084%=      5-min Rain = 0
KMC5 141011Z 36006KT 17/14 A3022 RMK A01 T01690143  RH  085%=      5-min Rain = 0
KMC5 141012Z 36005KT 17/14 A3022 RMK A01 T01690143  RH  085%=      5-min Rain = 0
KMC5 141013Z 00006KT 17/14 A3021 RMK A01 T01690143  RH  085%=      5-min Rain = 0
KMC5 141014Z 00005KT 17/14 A3021 RMK A01 T01690143  RH  085%=      5-min Rain = 0
KMC5 141015Z 00005KT 17/14 A3021 RMK A01 T01690143  RH  085%=      5-min Rain = 0
KMC5 141016Z 00005KT 17/14 A3021 RMK A01 T01690143  RH  084%=      5-min Rain = 0
KMC5 141017Z 00005KT 17/14 A3021 RMK A01 T01690142  RH  084%=      5-min Rain = 0
KMC5 141018Z 01005KT 17/14 A3021 RMK A01 T01690142  RH  084%=      5-min Rain = 0
KMC5 141019Z 01004KT 17/14 A3022 RMK A01 T01700143  RH  084%=      5-min Rain = 0
KMC5 141020Z 01004KT 17/14 A3022 RMK A01 T01700143  RH  084%=      5-min Rain = 0
KMC5 141021Z 01004KT 17/14 A3022 RMK A01 T01700143  RH  084%=      5-min Rain = 0
KMC5 141022Z 00003KT 17/14 A3021 RMK A01 T01710143  RH  084%=      5-min Rain = 0
KMC5 141023Z 35003KT 17/14 A3022 RMK A01 T01710143  RH  083%=      5-min Rain = 0
KMC5 141024Z 34005KT 17/14 A3022 RMK A01 T01720143  RH  083%=      5-min Rain = 0
KMC5 141025Z 32009KT 17/14 A3022 RMK A01 T01720143  RH  083%=      5-min Rain = 0
KMC5 141026Z 31013KT 17/14 A3023 RMK A01 T01700143  RH  084%=      5-min Rain = 0
KMC5 141027Z 31012KT 17/14 A3023 RMK A01 T01680143  RH  085%=      5-min Rain = 0
KMC5 141028Z 31010KT 17/14 A3023 RMK A01 T01660143  RH  086%=      5-min Rain = 0
KMC5 141029Z 32008KT 17/14 A3023 RMK A01 T01660143  RH  086%=      5-min Rain = 0
KMC5 141030Z 32011KT 17/14 A3024 RMK A01 T01660143  RH  086%=      5-min Rain = 0
KMC5 141031Z 33015KT 17/14 A3024 RMK A01 T01670143  RH  086%=      5-min Rain = 0
KMC5 141032Z 33016G21KT 17/14 A3024 RMK A01 T01670143  RH  086%=      5-min Rain = 0
KMC5 141033Z 33018KT 17/14 A3024 RMK A01 T01680142  RH  085%=      5-min Rain = 0
KMC5 141034Z 34015KT 17/14 A3024 RMK A01 T01690143  RH  084%=      5-min Rain = 0
KMC5 141035Z 34011KT 17/14 A3023 RMK A01 T01700142  RH  084%=      5-min Rain = 0
KMC5 141036Z 34012KT 17/14 A3023 RMK A01 T01710142  RH  083%=      5-min Rain = 0
KMC5 141037Z 33015KT 17/14 A3024 RMK A01 T01710143  RH  083%=      5-min Rain = 0
KMC5 141038Z 33016KT 17/14 A3024 RMK A01 T01710143  RH  084%=      5-min Rain = 0
KMC5 141039Z 33015KT 17/14 A3024 RMK A01 T01710143  RH  084%=      5-min Rain = 0
KMC5 141040Z 33013KT 17/14 A3023 RMK A01 T01710143  RH  083%=      5-min Rain = 0
KMC5 141041Z 34010KT 17/14 A3023 RMK A01 T01710142  RH  083%=      5-min Rain = 0
KMC5 141042Z 34011KT 17/14 A3023 RMK A01 T01720142  RH  083%=      5-min Rain = 0
KMC5 141043Z 34012KT 17/14 A3023 RMK A01 T01720142  RH  083%=      5-min Rain = 0
KMC5 141044Z 34012KT 17/14 A3023 RMK A01 T01720142  RH  082%=      5-min Rain = 0
KMC5 141045Z 33011KT 17/14 A3023 RMK A01 T01720142  RH  082%=      5-min Rain = 0
KMC5 141046Z 32010KT 17/14 A3023 RMK A01 T01730142  RH  082%=      5-min Rain = 0
KMC5 141047Z 32012KT 17/14 A3024 RMK A01 T01730142  RH  082%=      5-min Rain = 0
KMC5 141048Z 32012KT 17/14 A3024 RMK A01 T01730142  RH  082%=      5-min Rain = 0
KMC5 141049Z 32012KT 17/14 A3024 RMK A01 T01730143  RH  083%=      5-min Rain = 0
KMC5 141050Z 32011KT 17/14 A3024 RMK A01 T01720143  RH  083%=      5-min Rain = 0
KMC5 141051Z 32009KT 17/14 A3024 RMK A01 T01720143  RH  083%=      5-min Rain = 0
KMC5 141052Z 32007KT 17/14 A3023 RMK A01 T01720142  RH  083%=      5-min Rain = 0
KMC5 141053Z 32007KT 17/14 A3023 RMK A01 T01720141  RH  082%=      5-min Rain = 0
KMC5 141054Z 32009KT 17/14 A3023 RMK A01 T01720142  RH  082%=      5-min Rain = 0
KMC5 141055Z 32011KT 17/14 A3024 RMK A01 T01720141  RH  082%=      5-min Rain = 0
KMC5 141056Z 32011KT 17/14 A3024 RMK A01 T01720142  RH  082%=      5-min Rain = 0
KMC5 141057Z 32012KT 17/14 A3024 RMK A01 T01720142  RH  083%=      5-min Rain = 0
KMC5 141058Z 32011KT 17/14 A3024 RMK A01 T01720142  RH  083%=      5-min Rain = 0
KMC5 141059Z 32012KT 17/14 A3024 RMK A01 T01720142  RH  082%=      5-min Rain = 0
KMC5 141100Z 32008KT 17/14 A3024 RMK A01 T01720141  RH  082%=      5-min Rain = 0
KMC5 141101Z 32010KT 17/14 A3024 RMK A01 T01720141  RH  082%=      5-min Rain = 0
KMC5 141102Z 32010KT 17/14 A3024 RMK A01 T01720141  RH  082%=      5-min Rain = 0
KMC5 141103Z 31011KT 17/14 A3024 RMK A01 T01720141  RH  082%=      5-min Rain = 0
KMC5 141104Z 32011KT 17/14 A3024 RMK A01 T01720142  RH  083%=      5-min Rain = 0
KMC5 141105Z 32010KT 17/14 A3024 RMK A01 T01710142  RH  083%=      5-min Rain = 0
KMC5 141106Z 31009KT 17/14 A3024 RMK A01 T01710142  RH  083%=      5-min Rain = 0
KMC5 141107Z 31009KT 17/14 A3024 RMK A01 T01710142  RH  083%=      5-min Rain = 0
KMC5 141108Z 31009KT 17/14 A3024 RMK A01 T01710141  RH  083%=      5-min Rain = 0
KMC5 141109Z 31008KT 17/14 A3024 RMK A01 T01710141  RH  083%=      5-min Rain = 0
KMC5 141110Z 32010KT 17/14 A3024 RMK A01 T01710141  RH  083%=      5-min Rain = 0
KMC5 141111Z 32010KT 17/14 A3024 RMK A01 T01710141  RH  083%=      5-min Rain = 0
KMC5 141112Z 32011KT 17/14 A3024 RMK A01 T01710141  RH  082%=      5-min Rain = 0
KMC5 141113Z 32010KT 17/14 A3023 RMK A01 T01710141  RH  082%=      5-min Rain = 0
KMC5 141114Z 32011KT 17/14 A3023 RMK A01 T01710141  RH  082%=      5-min Rain = 0
KMC5 141115Z 32011KT 17/14 A3023 RMK A01 T01710140  RH  082%=      5-min Rain = 0
KMC5 141116Z 32010KT 17/14 A3023 RMK A01 T01720140  RH  082%=      5-min Rain = 0
KMC5 141117Z 32010KT 17/14 A3023 RMK A01 T01720140  RH  082%=      5-min Rain = 0
KMC5 141118Z 32010KT 17/14 A3023 RMK A01 T01720140  RH  082%=      5-min Rain = 0
KMC5 141119Z 32010KT 17/14 A3023 RMK A01 T01720141  RH  082%=      5-min Rain = 0
KMC5 141120Z 32009KT 17/14 A3023 RMK A01 T01720140  RH  081%=      5-min Rain = 0
KMC5 141121Z 31009KT 17/14 A3023 RMK A01 T01720140  RH  082%=      5-min Rain = 0
KMC5 141122Z 32010KT 17/14 A3023 RMK A01 T01720140  RH  082%=      5-min Rain = 0
KMC5 141123Z 31009KT 17/14 A3023 RMK A01 T01710140  RH  082%=      5-min Rain = 0
KMC5 141124Z 31008KT 17/14 A3023 RMK A01 T01720140  RH  082%=      5-min Rain = 0
KMC5 141125Z 32009KT 17/14 A3023 RMK A01 T01710140  RH  082%=      5-min Rain = 0
KMC5 141126Z 32009KT 17/14 A3023 RMK A01 T01710140  RH  082%=      5-min Rain = 0
KMC5 141127Z 32008KT 17/14 A3023 RMK A01 T01720139  RH  081%=      5-min Rain = 0
KMC5 141128Z 32007KT 17/14 A3023 RMK A01 T01720139  RH  081%=      5-min Rain = 0
KMC5 141129Z 32008KT 17/14 A3023 RMK A01 T01720140  RH  081%=      5-min Rain = 0
KMC5 141130Z 33008KT 17/14 A3023 RMK A01 T01720140  RH  082%=      5-min Rain = 0
KMC5 141131Z 32007KT 17/14 A3023 RMK A01 T01720140  RH  082%=      5-min Rain = 0
KMC5 141132Z 32007KT 17/14 A3023 RMK A01 T01720140  RH  082%=      5-min Rain = 0
KMC5 141133Z 32005KT 17/14 A3023 RMK A01 T01720140  RH  082%=      5-min Rain = 0
KMC5 141134Z 32006KT 17/14 A3023 RMK A01 T01720140  RH  082%=      5-min Rain = 0
KMC5 141135Z 32007KT 17/14 A3023 RMK A01 T01710140  RH  082%=      5-min Rain = 0
KMC5 141136Z 32007KT 17/14 A3023 RMK A01 T01710140  RH  082%=      5-min Rain = 0
KMC5 141137Z 32008KT 17/14 A3023 RMK A01 T01710140  RH  082%=      5-min Rain = 0
KMC5 141138Z 32008KT 17/14 A3023 RMK A01 T01710140  RH  082%=      5-min Rain = 0
KMC5 141139Z 32008KT 17/14 A3023 RMK A01 T01710140  RH  082%=      5-min Rain = 0
KMC5 141140Z 32007KT 17/14 A3023 RMK A01 T01710140  RH  082%=      5-min Rain = 0
KMC5 141141Z 32007KT 17/14 A3023 RMK A01 T01700139  RH  082%=      5-min Rain = 0
KMC5 141142Z 32008KT 17/14 A3023 RMK A01 T01700139  RH  082%=      5-min Rain = 0
KMC5 141143Z 32008KT 17/14 A3023 RMK A01 T01700139  RH  082%=      5-min Rain = 0
KMC5 141144Z 31008KT 17/14 A3023 RMK A01 T01700140  RH  082%=      5-min Rain = 0
KMC5 141145Z 31008KT 17/14 A3023 RMK A01 T01700140  RH  082%=      5-min Rain = 0
KMC5 141146Z 31007KT 17/14 A3023 RMK A01 T01700140  RH  083%=      5-min Rain = 0
KMC5 141147Z 31007KT 17/14 A3023 RMK A01 T01690140  RH  083%=      5-min Rain = 0
KMC5 141148Z 31008KT 17/14 A3023 RMK A01 T01690139  RH  083%=      5-min Rain = 0
KMC5 141149Z 31008KT 17/14 A3023 RMK A01 T01690140  RH  083%=      5-min Rain = 0
KMC5 141150Z 31008KT 17/14 A3023 RMK A01 T01690139  RH  083%=      5-min Rain = 0
KMC5 141151Z 31007KT 17/14 A3023 RMK A01 T01690139  RH  083%=      5-min Rain = 0
KMC5 141152Z 31007KT 17/14 A3023 RMK A01 T01690140  RH  083%=      5-min Rain = 0
KMC5 141153Z 31007KT 17/14 A3023 RMK A01 T01690139  RH  082%=      5-min Rain = 0
KMC5 141154Z 31007KT 17/14 A3023 RMK A01 T01690139  RH  082%=      5-min Rain = 0
KMC5 141155Z 31007KT 17/14 A3023 RMK A01 T01690139  RH  082%=      5-min Rain = 0
KMC5 141156Z 32007KT 17/14 A3023 RMK A01 T01690139  RH  082%=      5-min Rain = 0
KMC5 141157Z 32007KT 17/14 A3023 RMK A01 T01690139  RH  083%=      5-min Rain = 0
KMC5 141158Z 32007KT 17/14 A3023 RMK A01 T01690139  RH  082%=      5-min Rain = 0
KMC5 141159Z 33006KT 17/14 A3023 RMK A01 T01690139  RH  082%=      5-min Rain = 0
KMC5 141200Z 33007KT 17/14 A3023 RMK A01 T01690138  RH  082%=      5-min Rain = 0
KMC5 141201Z 33007KT 17/14 A3024 RMK A01 T01710138  RH  081%=      5-min Rain = 0
KMC5 141202Z 33006KT 17/14 A3024 RMK A01 T01720137  RH  080%=      5-min Rain = 0
KMC5 141203Z 33004KT 17/14 A3023 RMK A01 T01730138  RH  080%=      5-min Rain = 0
KMC5 141204Z 32003KT 17/14 A3023 RMK A01 T01740139  RH  080%=      5-min Rain = 0
KMC5 141205Z 30003KT 17/14 A3023 RMK A01 T01730139  RH  081%=      5-min Rain = 0
KMC5 141206Z 29003KT 17/14 A3023 RMK A01 T01700139  RH  082%=      5-min Rain = 0
KMC5 141207Z 21002KT 17/14 A3023 RMK A01 T01690139  RH  083%=      5-min Rain = 0
KMC5 141208Z 18002KT 17/14 A3024 RMK A01 T01680139  RH  083%=      5-min Rain = 0
KMC5 141209Z 23001KT 17/14 A3024 RMK A01 T01670139  RH  084%=      5-min Rain = 0
KMC5 141210Z 26002KT 17/14 A3024 RMK A01 T01670138  RH  083%=      5-min Rain = 0
KMC5 141211Z 27003KT 17/14 A3024 RMK A01 T01680138  RH  082%=      5-min Rain = 0
KMC5 141212Z 26004KT 17/14 A3024 RMK A01 T01700138  RH  082%=      5-min Rain = 0
KMC5 141213Z 26005KT 17/14 A3024 RMK A01 T01700140  RH  082%=      5-min Rain = 0
KMC5 141214Z 25005KT 17/14 A3024 RMK A01 T01690140  RH  083%=      5-min Rain = 0
KMC5 141215Z 26006KT 17/14 A3024 RMK A01 T01680140  RH  084%=      5-min Rain = 0
KMC5 141216Z 26005KT 17/14 A3024 RMK A01 T01670140  RH  084%=      5-min Rain = 0
KMC5 141217Z 26004KT 17/14 A3024 RMK A01 T01660140  RH  085%=      5-min Rain = 0
KMC5 141218Z 26006KT 17/14 A3024 RMK A01 T01650140  RH  085%=      5-min Rain = 0
KMC5 141219Z 26007KT 17/14 A3024 RMK A01 T01650141  RH  086%=      5-min Rain = 0
KMC5 141220Z 26007KT 17/14 A3024 RMK A01 T01650141  RH  086%=      5-min Rain = 0
KMC5 141221Z 26007KT 17/14 A3024 RMK A01 T01650142  RH  086%=      5-min Rain = 0
KMC5 141222Z 27007KT 17/14 A3025 RMK A01 T01650142  RH  086%=      5-min Rain = 0
KMC5 141223Z 27007KT 17/14 A3025 RMK A01 T01650142  RH  087%=      5-min Rain = 0
KMC5 141224Z 27008KT 17/14 A3025 RMK A01 T01650142  RH  087%=      5-min Rain = 0
KMC5 141225Z 27007KT 16/14 A3025 RMK A01 T01640142  RH  087%=      5-min Rain = 0
KMC5 141226Z 27006KT 16/14 A3025 RMK A01 T01640141  RH  086%=      5-min Rain = 0
KMC5 141227Z 27006KT 17/14 A3024 RMK A01 T01650141  RH  086%=      5-min Rain = 0
KMC5 141228Z 26006KT 17/14 A3024 RMK A01 T01660142  RH  086%=      5-min Rain = 0
KMC5 141229Z 26006KT 17/14 A3024 RMK A01 T01670142  RH  085%=      5-min Rain = 0
KMC5 141230Z 27006KT 17/14 A3024 RMK A01 T01670142  RH  085%=      5-min Rain = 0
KMC5 141231Z 27006KT 17/14 A3024 RMK A01 T01680142  RH  085%=      5-min Rain = 0
KMC5 141232Z 27005KT 17/14 A3024 RMK A01 T01680142  RH  085%=      5-min Rain = 0
KMC5 141233Z 27004KT 17/14 A3024 RMK A01 T01680142  RH  084%=      5-min Rain = 0
KMC5 141234Z 28004KT 17/14 A3024 RMK A01 T01690142  RH  084%=      5-min Rain = 0
KMC5 141235Z 28005KT 17/14 A3024 RMK A01 T01690142  RH  084%=      5-min Rain = 0
KMC5 141236Z 28004KT 17/14 A3024 RMK A01 T01700142  RH  083%=      5-min Rain = 0
KMC5 141237Z 28004KT 17/14 A3024 RMK A01 T01700142  RH  083%=      5-min Rain = 0
KMC5 141238Z 28004KT 17/14 A3024 RMK A01 T01710142  RH  083%=      5-min Rain = 0
KMC5 141239Z 29004KT 17/14 A3024 RMK A01 T01710142  RH  083%=      5-min Rain = 0
KMC5 141240Z 29005KT 17/14 A3024 RMK A01 T01720143  RH  083%=      5-min Rain = 0
KMC5 141241Z 30005KT 17/14 A3024 RMK A01 T01720143  RH  083%=      5-min Rain = 0
KMC5 141242Z 30005KT 17/14 A3024 RMK A01 T01730144  RH  083%=      5-min Rain = 0
KMC5 141243Z 30005KT 17/14 A3024 RMK A01 T01730144  RH  083%=      5-min Rain = 0
KMC5 141244Z 30006KT 17/14 A3024 RMK A01 T01730144  RH  083%=      5-min Rain = 0
KMC5 141245Z 30006KT 17/14 A3024 RMK A01 T01730144  RH  083%=      5-min Rain = 0
KMC5 141246Z 30006KT 17/14 A3024 RMK A01 T01740144  RH  083%=      5-min Rain = 0
KMC5 141247Z 30006KT 17/14 A3024 RMK A01 T01740144  RH  082%=      5-min Rain = 0
KMC5 141248Z 30007KT 18/14 A3024 RMK A01 T01750144  RH  082%=      5-min Rain = 0
KMC5 141249Z 31008KT 18/14 A3024 RMK A01 T01750144  RH  082%=      5-min Rain = 0
KMC5 141250Z 31009KT 18/14 A3024 RMK A01 T01760143  RH  081%=      5-min Rain = 0
KMC5 141251Z 31008KT 18/14 A3024 RMK A01 T01770143  RH  081%=      5-min Rain = 0
KMC5 141252Z 31008KT 18/14 A3024 RMK A01 T01770143  RH  080%=      5-min Rain = 0
KMC5 141253Z 32007KT 18/14 A3024 RMK A01 T01780143  RH  080%=      5-min Rain = 0
KMC5 141254Z 32007KT 18/14 A3024 RMK A01 T01790142  RH  079%=      5-min Rain = 0
KMC5 141255Z 31009KT 18/14 A3024 RMK A01 T01810143  RH  079%=      5-min Rain = 0
KMC5 141256Z 31009KT 18/14 A3024 RMK A01 T01810142  RH  078%=      5-min Rain = 0
KMC5 141257Z 32008KT 18/14 A3024 RMK A01 T01820142  RH  077%=      5-min Rain = 0
KMC5 141258Z 32009KT 18/14 A3024 RMK A01 T01830142  RH  077%=      5-min Rain = 0
KMC5 141259Z 32008KT 19/14 A3024 RMK A01 T01850141  RH  076%=      5-min Rain = 0
KMC5 141300Z 32007KT 19/14 A3024 RMK A01 T01870138  RH  073%=      5-min Rain = 0
KMC5 141301Z 31008KT 19/14 A3024 RMK A01 T01880139  RH  073%=      5-min Rain = 0
KMC5 141302Z 30007KT 19/14 A3024 RMK A01 T01900142  RH  074%=      5-min Rain = 0
KMC5 141303Z 30007KT 19/14 A3024 RMK A01 T01900142  RH  074%=      5-min Rain = 0
KMC5 141304Z 30006KT 19/14 A3024 RMK A01 T01900141  RH  074%=      5-min Rain = 0
KMC5 141305Z 32005KT 19/14 A3024 RMK A01 T01890141  RH  073%=      5-min Rain = 0
KMC5 141306Z 31005KT 19/14 A3024 RMK A01 T01900140  RH  073%=      5-min Rain = 0
KMC5 141307Z 29005KT 19/14 A3024 RMK A01 T01900142  RH  074%=      5-min Rain = 0
KMC5 141308Z 28005KT 19/14 A3023 RMK A01 T01900143  RH  074%=      5-min Rain = 0
KMC5 141309Z 25004KT 19/15 A3023 RMK A01 T01900147  RH  076%=      5-min Rain = 0
KMC5 141310Z 24004KT 19/15 A3023 RMK A01 T01890148  RH  077%=      5-min Rain = 0
KMC5 141311Z 25004KT 19/15 A3023 RMK A01 T01870147  RH  077%=      5-min Rain = 0
KMC5 141312Z 26003KT 19/15 A3023 RMK A01 T01870146  RH  077%=      5-min Rain = 0
KMC5 141313Z 27003KT 19/15 A3023 RMK A01 T01870146  RH  077%=      5-min Rain = 0
KMC5 141314Z 27003KT 19/15 A3023 RMK A01 T01870147  RH  078%=      5-min Rain = 0
KMC5 141315Z 27003KT 19/15 A3023 RMK A01 T01860147  RH  078%=      5-min Rain = 0
KMC5 141316Z 27003KT 19/15 A3023 RMK A01 T01860146  RH  077%=      5-min Rain = 0
KMC5 141317Z 26005KT 19/15 A3024 RMK A01 T01860147  RH  078%=      5-min Rain = 0
KMC5 141318Z 25004KT 19/15 A3024 RMK A01 T01860149  RH  079%=      5-min Rain = 0
KMC5 141319Z 23004KT 19/15 A3024 RMK A01 T01850149  RH  079%=      5-min Rain = 0
KMC5 141320Z 23004KT 19/15 A3024 RMK A01 T01850149  RH  080%=      5-min Rain = 0
KMC5 141321Z 24003KT 18/15 A3024 RMK A01 T01840149  RH  080%=      5-min Rain = 0
KMC5 141322Z 24003KT 18/15 A3024 RMK A01 T01840149  RH  080%=      5-min Rain = 0
KMC5 141323Z 24003KT 18/15 A3024 RMK A01 T01840149  RH  080%=      5-min Rain = 0
KMC5 141324Z 25004KT 18/15 A3025 RMK A01 T01840149  RH  080%=      5-min Rain = 0
KMC5 141325Z 24004KT 18/15 A3025 RMK A01 T01840149  RH  080%=      5-min Rain = 0
KMC5 141326Z 24004KT 18/15 A3025 RMK A01 T01830149  RH  080%=      5-min Rain = 0
KMC5 141327Z 25004KT 18/15 A3025 RMK A01 T01830150  RH  081%=      5-min Rain = 0
KMC5 141328Z 26003KT 18/15 A3025 RMK A01 T01830150  RH  081%=      5-min Rain = 0
KMC5 141329Z 28004KT 18/15 A3025 RMK A01 T01830149  RH  080%=      5-min Rain = 0
KMC5 141330Z 29003KT 18/15 A3025 RMK A01 T01840149  RH  080%=      5-min Rain = 0
KMC5 141331Z 29003KT 18/15 A3025 RMK A01 T01840150  RH  081%=      5-min Rain = 0
KMC5 141332Z 31003KT 19/15 A3025 RMK A01 T01850150  RH  080%=      5-min Rain = 0
KMC5 141333Z 34004KT 19/15 A3025 RMK A01 T01860145  RH  077%=      5-min Rain = 0
KMC5 141334Z 34005KT 19/15 A3026 RMK A01 T01890146  RH  076%=      5-min Rain = 0
KMC5 141335Z 35006KT 19/15 A3026 RMK A01 T01920146  RH  075%=      5-min Rain = 0
KMC5 141336Z 35005KT 20/14 A3026 RMK A01 T01950143  RH  072%=      5-min Rain = 0
KMC5 141337Z 36004KT 20/14 A3026 RMK A01 T01980142  RH  070%=      5-min Rain = 0
KMC5 141338Z 01003KT 20/14 A3026 RMK A01 T02010142  RH  069%=      5-min Rain = 0
KMC5 141339Z 36003KT 20/14 A3025 RMK A01 T02020144  RH  069%=      5-min Rain = 0
KMC5 141340Z 35003KT 20/15 A3025 RMK A01 T02020146  RH  070%=      5-min Rain = 0
KMC5 141341Z 35004KT 20/15 A3025 RMK A01 T02030145  RH  069%=      5-min Rain = 0
KMC5 141342Z 35004KT 20/15 A3026 RMK A01 T02040145  RH  069%=      5-min Rain = 0
KMC5 141343Z 36005KT 21/15 A3026 RMK A01 T02050145  RH  069%=      5-min Rain = 0
KMC5 141344Z 01004KT 21/15 A3026 RMK A01 T02060149  RH  069%=      5-min Rain = 0
KMC5 141345Z 02004KT 21/15 A3026 RMK A01 T02070150  RH  070%=      5-min Rain = 0
KMC5 141346Z 01004KT 21/15 A3026 RMK A01 T02080151  RH  070%=      5-min Rain = 0
KMC5 141347Z 01005KT 21/15 A3026 RMK A01 T02090145  RH  067%=      5-min Rain = 0
KMC5 141348Z 02003KT 21/14 A3026 RMK A01 T02100143  RH  066%=      5-min Rain = 0
KMC5 141349Z 02004KT 21/15 A3026 RMK A01 T02110148  RH  067%=      5-min Rain = 0
KMC5 141350Z 02004KT 21/15 A3026 RMK A01 T02110146  RH  066%=      5-min Rain = 0
KMC5 141351Z 02004KT 21/15 A3026 RMK A01 T02120146  RH  066%=      5-min Rain = 0
KMC5 141352Z 02004KT 21/14 A3025 RMK A01 T02120143  RH  064%=      5-min Rain = 0
KMC5 141353Z 03003KT 21/14 A3025 RMK A01 T02130142  RH  064%=      5-min Rain = 0
KMC5 141354Z 03004KT 21/14 A3025 RMK A01 T02140140  RH  063%=      5-min Rain = 0
KMC5 141355Z 04004KT 21/14 A3025 RMK A01 T02140142  RH  063%=      5-min Rain = 0
KMC5 141356Z 05003KT 22/14 A3025 RMK A01 T02150144  RH  064%=      5-min Rain = 0
KMC5 141357Z 06004KT 22/15 A3025 RMK A01 T02150145  RH  064%=      5-min Rain = 0
KMC5 141358Z 07005KT 22/15 A3025 RMK A01 T02160146  RH  065%=      5-min Rain = 0
KMC5 141359Z 07004KT 22/15 A3025 RMK A01 T02160148  RH  065%=      5-min Rain = 0
KMC5 141400Z 07004KT 22/15 A3026 RMK A01 T02160146  RH  064%=      5-min Rain = 0
KMC5 141401Z 07003KT 22/15 A3026 RMK A01 T02160145  RH  064%=      5-min Rain = 0
KMC5 141402Z 07003KT 22/15 A3026 RMK A01 T02150145  RH  064%=      5-min Rain = 0
KMC5 141403Z 08003KT 22/15 A3025 RMK A01 T02150147  RH  065%=      5-min Rain = 0
KMC5 141404Z 07004KT 22/15 A3026 RMK A01 T02150146  RH  065%=      5-min Rain = 0
KMC5 141405Z 07004KT 22/15 A3026 RMK A01 T02150145  RH  064%=      5-min Rain = 0
KMC5 141406Z 07003KT 22/14 A3026 RMK A01 T02160142  RH  063%=      5-min Rain = 0
KMC5 141407Z 07003KT 22/14 A3026 RMK A01 T02170142  RH  063%=      5-min Rain = 0
KMC5 141408Z 07002KT 22/14 A3026 RMK A01 T02170143  RH  062%=      5-min Rain = 0
KMC5 141409Z 09002KT 22/14 A3026 RMK A01 T02170143  RH  062%=      5-min Rain = 0
KMC5 141410Z 09003KT 22/14 A3026 RMK A01 T02180141  RH  062%=      5-min Rain = 0
KMC5 141411Z 10003KT 22/14 A3026 RMK A01 T02180144  RH  063%=      5-min Rain = 0
KMC5 141412Z 10003KT 22/14 A3026 RMK A01 T02170143  RH  062%=      5-min Rain = 0
KMC5 141413Z 11002KT 22/14 A3026 RMK A01 T02170142  RH  062%=      5-min Rain = 0
KMC5 141414Z 12002KT 22/14 A3026 RMK A01 T02170144  RH  063%=      5-min Rain = 0
KMC5 141415Z 15001KT 22/14 A3025 RMK A01 T02180143  RH  063%=      5-min Rain = 0
KMC5 141416Z 15001KT 22/15 A3025 RMK A01 T02180145  RH  063%=      5-min Rain = 0
KMC5 141417Z 14000KT 22/14 A3025 RMK A01 T02190141  RH  061%=      5-min Rain = 0
KMC5 141418Z 00000KT 22/14 A3025 RMK A01 T02190140  RH  061%=      5-min Rain = 0
KMC5 141419Z 00000KT 22/14 A3025 RMK A01 T02200141  RH  061%=      5-min Rain = 0
KMC5 141420Z 05000KT 22/14 A3025 RMK A01 T02200138  RH  060%=      5-min Rain = 0
KMC5 141421Z 05002KT 22/14 A3025 RMK A01 T02210140  RH  060%=      5-min Rain = 0
KMC5 141422Z 05002KT 22/14 A3025 RMK A01 T02220139  RH  059%=      5-min Rain = 0
KMC5 141423Z 05003KT 22/14 A3025 RMK A01 T02230137  RH  058%=      5-min Rain = 0
KMC5 141424Z 05002KT 22/14 A3025 RMK A01 T02240139  RH  059%=      5-min Rain = 0
KMC5 141425Z 05002KT 23/14 A3025 RMK A01 T02250138  RH  058%=      5-min Rain = 0
KMC5 141426Z 06001KT 23/13 A3025 RMK A01 T02260134  RH  056%=      5-min Rain = 0
KMC5 141427Z 20000KT 23/14 A3025 RMK A01 T02260135  RH  056%=      5-min Rain = 0
KMC5 141428Z 20002KT 23/14 A3025 RMK A01 T02270139  RH  058%=      5-min Rain = 0
KMC5 141429Z 23001KT 23/14 A3025 RMK A01 T02270142  RH  058%=      5-min Rain = 0
KMC5 141430Z 22002KT 23/14 A3025 RMK A01 T02280138  RH  057%=      5-min Rain = 0
KMC5 141431Z 23001KT 23/14 A3024 RMK A01 T02290143  RH  058%=      5-min Rain = 0
KMC5 141432Z 24001KT 23/14 A3024 RMK A01 T02310142  RH  057%=      5-min Rain = 0
KMC5 141433Z 20001KT 23/14 A3024 RMK A01 T02330141  RH  056%=      5-min Rain = 0
KMC5 141434Z 18000KT 24/14 A3024 RMK A01 T02350138  RH  055%=      5-min Rain = 0
KMC5 141435Z 08000KT 24/14 A3024 RMK A01 T02370135  RH  053%=      5-min Rain = 0
KMC5 141436Z 08001KT 24/13 A3024 RMK A01 T02390132  RH  051%=      5-min Rain = 0
KMC5 141437Z 11000KT 24/13 A3024 RMK A01 T02410131  RH  050%=      5-min Rain = 0
KMC5 141438Z 10000KT 24/13 A3024 RMK A01 T02430128  RH  049%=      5-min Rain = 0
KMC5 141439Z 02000KT 25/13 A3024 RMK A01 T02450125  RH  047%=      5-min Rain = 0
KMC5 141440Z 03001KT 25/13 A3024 RMK A01 T02470128  RH  048%=      5-min Rain = 0
KMC5 141441Z 07002KT 25/13 A3024 RMK A01 T02480132  RH  048%=      5-min Rain = 0
KMC5 141442Z 07003KT 25/13 A3024 RMK A01 T02480130  RH  048%=      5-min Rain = 0
KMC5 141443Z 06003KT 25/12 A3023 RMK A01 T02480117  RH  044%=      5-min Rain = 0
KMC5 141444Z 06002KT 25/12 A3023 RMK A01 T02480119  RH  044%=      5-min Rain = 0
KMC5 141445Z 07003KT 25/12 A3023 RMK A01 T02480124  RH  046%=      5-min Rain = 0
KMC5 141446Z 05002KT 25/13 A3023 RMK A01 T02470126  RH  047%=      5-min Rain = 0
KMC5 141447Z 06002KT 25/13 A3023 RMK A01 T02470130  RH  048%=      5-min Rain = 0
KMC5 141448Z 06003KT 25/13 A3023 RMK A01 T02470126  RH  047%=      5-min Rain = 0
KMC5 141449Z 06004KT 25/12 A3023 RMK A01 T02470120  RH  045%=      5-min Rain = 0
KMC5 141450Z 06004KT 25/12 A3023 RMK A01 T02450116  RH  044%=      5-min Rain = 0
KMC5 141451Z 06004KT 25/12 A3023 RMK A01 T02450117  RH  045%=      5-min Rain = 0
KMC5 141452Z 07003KT 24/12 A3023 RMK A01 T02440119  RH  045%=      5-min Rain = 0
KMC5 141453Z 05003KT 24/12 A3023 RMK A01 T02440120  RH  046%=      5-min Rain = 0
KMC5 141454Z 05003KT 24/13 A3023 RMK A01 T02440125  RH  047%=      5-min Rain = 0
KMC5 141455Z 05005KT 24/12 A3023 RMK A01 T02430124  RH  047%=      5-min Rain = 0
KMC5 141456Z 05006KT 24/12 A3023 RMK A01 T02440120  RH  046%=      5-min Rain = 0
KMC5 141457Z 05006KT 24/12 A3023 RMK A01 T02440123  RH  047%=      5-min Rain = 0
KMC5 141458Z 07005KT 24/13 A3023 RMK A01 T02430129  RH  049%=      5-min Rain = 0
KMC5 141459Z 05005KT 24/13 A3023 RMK A01 T02430131  RH  050%=      5-min Rain = 0
KMC5 141500Z 06006KT 24/13 A3023 RMK A01 T02420126  RH  048%=      5-min Rain = 0
KMC5 141501Z 05007KT 24/13 A3023 RMK A01 T02420125  RH  048%=      5-min Rain = 0
KMC5 141502Z 05007KT 24/12 A3023 RMK A01 T02420123  RH  048%=      5-min Rain = 0
KMC5 141503Z 05007KT 24/13 A3023 RMK A01 T02410126  RH  049%=      5-min Rain = 0
KMC5 141504Z 06007KT 24/13 A3023 RMK A01 T02410127  RH  049%=      5-min Rain = 0
KMC5 141505Z 06007KT 24/13 A3023 RMK A01 T02400131  RH  051%=      5-min Rain = 0
KMC5 141506Z 06006KT 24/13 A3023 RMK A01 T02400133  RH  051%=      5-min Rain = 0
KMC5 141507Z 06006KT 24/13 A3023 RMK A01 T02400133  RH  051%=      5-min Rain = 0
KMC5 141508Z 06005KT 24/13 A3024 RMK A01 T02400131  RH  051%=      5-min Rain = 0
KMC5 141509Z 05006KT 24/13 A3024 RMK A01 T02400132  RH  051%=      5-min Rain = 0
KMC5 141510Z 06005KT 24/13 A3024 RMK A01 T02400132  RH  051%=      5-min Rain = 0
KMC5 141511Z 06006KT 24/13 A3024 RMK A01 T02410134  RH  051%=      5-min Rain = 0
KMC5 141512Z 06005KT 24/13 A3024 RMK A01 T02410131  RH  050%=      5-min Rain = 0
KMC5 141513Z 06004KT 24/13 A3024 RMK A01 T02410133  RH  051%=      5-min Rain = 0
KMC5 141514Z 06005KT 24/13 A3024 RMK A01 T02420133  RH  051%=      5-min Rain = 0
KMC5 141515Z 06005KT 24/13 A3024 RMK A01 T02430133  RH  050%=      5-min Rain = 0
KMC5 141516Z 07005KT 24/13 A3024 RMK A01 T02430134  RH  051%=      5-min Rain = 0
KMC5 141517Z 07006KT 24/13 A3024 RMK A01 T02440133  RH  050%=      5-min Rain = 0
KMC5 141518Z 07005KT 24/13 A3025 RMK A01 T02440132  RH  049%=      5-min Rain = 0
KMC5 141519Z 06004KT 24/13 A3025 RMK A01 T02440131  RH  049%=      5-min Rain = 0
KMC5 141520Z 34001KT 24/13 A3026 RMK A01 T02440131  RH  049%=      5-min Rain = 0
KMC5 141521Z 28004KT 25/13 A3026 RMK A01 T02450130  RH  049%=      5-min Rain = 0
KMC5 141522Z 28005KT 25/13 A3027 RMK A01 T02460134  RH  050%=      5-min Rain = 0
KMC5 141523Z 27005KT 25/13 A3027 RMK A01 T02470134  RH  050%=      5-min Rain = 0
KMC5 141524Z 30007KT 25/14 A3027 RMK A01 T02480135  RH  049%=      5-min Rain = 0
KMC5 141525Z 31006KT 25/14 A3028 RMK A01 T02490136  RH  049%=      5-min Rain = 0
KMC5 141526Z 34007KT 25/13 A3028 RMK A01 T02510133  RH  048%=      5-min Rain = 0
KMC5 141527Z 35008KT 25/13 A3028 RMK A01 T02510128  RH  046%=      5-min Rain = 0
KMC5 141528Z 34009KT 25/13 A3027 RMK A01 T02520129  RH  046%=      5-min Rain = 0
KMC5 141529Z 33011KT 25/13 A3027 RMK A01 T02530128  RH  046%=      5-min Rain = 0
KMC5 141530Z 35012KT 25/13 A3027 RMK A01 T02540126  RH  045%=      5-min Rain = 0
KMC5 141531Z 35012G17KT 25/13 A3027 RMK A01 T02540126  RH  045%=      5-min Rain = 0
KMC5 141532Z 34013G18KT 25/13 A3027 RMK A01 T02530128  RH  046%=      5-min Rain = 0
KMC5 141533Z 34018KT 25/13 A3027 RMK A01 T02520129  RH  046%=      5-min Rain = 0
KMC5 141534Z 34017KT 25/13 A3027 RMK A01 T02490129  RH  047%=      5-min Rain = 0
KMC5 141535Z 35019KT 25/13 A3027 RMK A01 T02470132  RH  049%=      5-min Rain = 0
KMC5 141536Z 34016KT 25/14 A3027 RMK A01 T02450136  RH  051%=      5-min Rain = 0
KMC5 141537Z 35017KT 24/14 A3027 RMK A01 T02440138  RH  052%=      5-min Rain = 0
KMC5 141538Z 35020KT 24/14 A3027 RMK A01 T02420137  RH  052%=      5-min Rain = 0
KMC5 141539Z 35020KT 24/14 A3026 RMK A01 T02390136  RH  053%=      5-min Rain = 0
KMC5 141540Z 35018KT 24/14 A3026 RMK A01 T02380136  RH  053%=      5-min Rain = 0
KMC5 141541Z 35022G29KT 24/14 A3026 RMK A01 T02380137  RH  053%=      5-min Rain = 0
KMC5 141542Z 36021KT 24/14 A3026 RMK A01 T02380137  RH  053%=      5-min Rain = 0
KMC5 141543Z 35021G26KT 24/14 A3026 RMK A01 T02360135  RH  053%=      5-min Rain = 0
KMC5 141544Z 00021KT 24/13 A3026 RMK A01 T02360133  RH  053%=      5-min Rain = 0
KMC5 141545Z 01020G25KT 24/13 A3026 RMK A01 T02360131  RH  052%=      5-min Rain = 0
KMC5 141546Z 01018KT 24/13 A3026 RMK A01 T02360131  RH  051%=      5-min Rain = 0
KMC5 141547Z 00018KT 24/13 A3026 RMK A01 T02370131  RH  052%=      5-min Rain = 0
KMC5 141548Z 00018KT 24/13 A3026 RMK A01 T02370133  RH  052%=      5-min Rain = 0
KMC5 141549Z 01016KT 24/13 A3027 RMK A01 T02370134  RH  052%=      5-min Rain = 0
KMC5 141550Z 01018KT 24/14 A3027 RMK A01 T02390136  RH  052%=      5-min Rain = 0
KMC5 141551Z 01019KT 24/14 A3027 RMK A01 T02420135  RH  051%=      5-min Rain = 0
KMC5 141552Z 00021G26KT 24/13 A3027 RMK A01 T02400134  RH  051%=      5-min Rain = 0
KMC5 141553Z 00020G25KT 24/14 A3028 RMK A01 T02400135  RH  052%=      5-min Rain = 0
KMC5 141554Z 00019KT 24/14 A3028 RMK A01 T02400135  RH  052%=      5-min Rain = 0
KMC5 141555Z 01021KT 24/14 A3028 RMK A01 T02410135  RH  051%=      5-min Rain = 0
KMC5 141556Z 00020KT 24/14 A3028 RMK A01 T02410135  RH  052%=      5-min Rain = 0
KMC5 141557Z 01017G22KT 24/14 A3028 RMK A01 T02400136  RH  052%=      5-min Rain = 0
KMC5 141558Z 01019KT 24/13 A3028 RMK A01 T02410134  RH  051%=      5-min Rain = 0
KMC5 141559Z 01016KT 24/14 A3027 RMK A01 T02400135  RH  052%=      5-min Rain = 0
KMC5 141600Z 02017G22KT 24/14 A3027 RMK A01 T02400137  RH  053%=      5-min Rain = 0
KMC5 141601Z 02019KT 24/13 A3026 RMK A01 T02410134  RH  051%=      5-min Rain = 0
KMC5 141602Z 03018KT 24/14 A3026 RMK A01 T02410135  RH  051%=      5-min Rain = 0
KMC5 141603Z 03019KT 24/13 A3026 RMK A01 T02410134  RH  051%=      5-min Rain = 0
KMC5 141604Z 02015KT 24/14 A3026 RMK A01 T02420135  RH  051%=      5-min Rain = 0
KMC5 141605Z 02017KT 24/14 A3026 RMK A01 T02440135  RH  051%=      5-min Rain = 0
KMC5 141606Z 02018KT 24/13 A3026 RMK A01 T02440134  RH  050%=      5-min Rain = 0
KMC5 141607Z 02016KT 25/13 A3026 RMK A01 T02450134  RH  050%=      5-min Rain = 0
KMC5 141608Z 01013KT 25/14 A3027 RMK A01 T02460137  RH  050%=      5-min Rain = 0
KMC5 141609Z 00015KT 25/14 A3027 RMK A01 T02500139  RH  050%=      5-min Rain = 0
KMC5 141610Z 36017KT 25/14 A3027 RMK A01 T02490138  RH  050%=      5-min Rain = 0
KMC5 141611Z 02018G23KT 25/14 A3027 RMK A01 T02470137  RH  050%=      5-min Rain = 0
KMC5 141612Z 01018KT 25/13 A3027 RMK A01 T02470134  RH  049%=      5-min Rain = 0
KMC5 141613Z 02015KT 25/14 A3027 RMK A01 T02450135  RH  050%=      5-min Rain = 0
KMC5 141614Z 02013KT 25/14 A3027 RMK A01 T02450138  RH  051%=      5-min Rain = 0
KMC5 141615Z 02017KT 25/14 A3027 RMK A01 T02480136  RH  050%=      5-min Rain = 0
KMC5 141616Z 02018KT 25/14 A3027 RMK A01 T02490135  RH  049%=      5-min Rain = 0
KMC5 141617Z 01017KT 25/14 A3027 RMK A01 T02490137  RH  050%=      5-min Rain = 0
KMC5 141618Z 01016KT 25/14 A3027 RMK A01 T02510137  RH  049%=      5-min Rain = 0
KMC5 141619Z 01014KT 25/14 A3027 RMK A01 T02510137  RH  049%=      5-min Rain = 0
KMC5 141620Z 00015KT 25/14 A3027 RMK A01 T02530138  RH  049%=      5-min Rain = 0
KMC5 141621Z 00017KT 26/14 A3027 RMK A01 T02550138  RH  048%=      5-min Rain = 0
KMC5 141622Z 00015KT 26/14 A3027 RMK A01 T02550138  RH  048%=      5-min Rain = 0
KMC5 141623Z 35015KT 25/14 A3027 RMK A01 T02540139  RH  049%=      5-min Rain = 0
KMC5 141624Z 35017KT 25/14 A3027 RMK A01 T02540139  RH  049%=      5-min Rain = 0
KMC5 141625Z 35018KT 25/14 A3027 RMK A01 T02540137  RH  048%=      5-min Rain = 0
KMC5 141626Z 01019KT 25/14 A3027 RMK A01 T02540136  RH  048%=      5-min Rain = 0
KMC5 141627Z 00017KT 25/14 A3027 RMK A01 T02540136  RH  048%=      5-min Rain = 0
KMC5 141628Z 00015G20KT 25/14 A3027 RMK A01 T02540135  RH  047%=      5-min Rain = 0
KMC5 141629Z 36014KT 26/13 A3027 RMK A01 T02560134  RH  047%=      5-min Rain = 0
KMC5 141630Z 01014KT 26/14 A3027 RMK A01 T02550135  RH  048%=      5-min Rain = 0
KMC5 141631Z 01014KT 26/14 A3027 RMK A01 T02560138  RH  048%=      5-min Rain = 0
KMC5 141632Z 00013KT 26/14 A3027 RMK A01 T02590138  RH  047%=      5-min Rain = 0
KMC5 141633Z 35012KT 26/14 A3026 RMK A01 T02610138  RH  047%=      5-min Rain = 0
KMC5 141634Z 36012KT 26/14 A3026 RMK A01 T02640138  RH  046%=      5-min Rain = 0
KMC5 141635Z 01013KT 27/14 A3026 RMK A01 T02650139  RH  046%=      5-min Rain = 0
KMC5 141636Z 02015KT 27/14 A3026 RMK A01 T02680138  RH  045%=      5-min Rain = 0
KMC5 141637Z 01017KT 27/14 A3026 RMK A01 T02690137  RH  044%=      5-min Rain = 0
KMC5 141638Z 00015KT 27/14 A3026 RMK A01 T02690135  RH  044%=      5-min Rain = 0
KMC5 141639Z 02013KT 27/14 A3026 RMK A01 T02670137  RH  045%=      5-min Rain = 0
KMC5 141640Z 01016KT 27/14 A3026 RMK A01 T02690138  RH  044%=      5-min Rain = 0
KMC5 141641Z 01017KT 27/14 A3026 RMK A01 T02700137  RH  044%=      5-min Rain = 0
KMC5 141642Z 01015KT 27/14 A3026 RMK A01 T02670138  RH  045%=      5-min Rain = 0
KMC5 141643Z 01013KT 26/14 A3026 RMK A01 T02640136  RH  045%=      5-min Rain = 0
KMC5 141644Z 02015KT 26/14 A3026 RMK A01 T02620136  RH  046%=      5-min Rain = 0
KMC5 141645Z 02014KT 26/13 A3026 RMK A01 T02610133  RH  045%=      5-min Rain = 0
KMC5 141646Z 02016KT 26/13 A3026 RMK A01 T02630132  RH  044%=      5-min Rain = 0
KMC5 141647Z 02014G19KT 26/13 A3025 RMK A01 T02640130  RH  044%=      5-min Rain = 0
KMC5 141648Z 01013KT 27/13 A3025 RMK A01 T02650132  RH  044%=      5-min Rain = 0
KMC5 141649Z 02014KT 27/13 A3025 RMK A01 T02660133  RH  044%=      5-min Rain = 0
KMC5 141650Z 03011KT 27/13 A3025 RMK A01 T02660131  RH  043%=      5-min Rain = 0
KMC5 141651Z 01016KT 27/14 A3025 RMK A01 T02720137  RH  043%=      5-min Rain = 0
KMC5 141652Z 01017KT 28/13 A3025 RMK A01 T02750134  RH  042%=      5-min Rain = 0
KMC5 141653Z 02014KT 27/13 A3025 RMK A01 T02740134  RH  042%=      5-min Rain = 0
KMC5 141654Z 02012KT 27/14 A3025 RMK A01 T02730136  RH  043%=      5-min Rain = 0
KMC5 141655Z 04015KT 28/14 A3025 RMK A01 T02760135  RH  042%=      5-min Rain = 0
KMC5 141656Z 03013KT 28/14 A3024 RMK A01 T02770137  RH  042%=      5-min Rain = 0
KMC5 141657Z 02012KT 28/14 A3024 RMK A01 T02790139  RH  042%=      5-min Rain = 0
KMC5 141658Z 03017KT 28/14 A3025 RMK A01 T02810138  RH  041%=      5-min Rain = 0
KMC5 141659Z 02014KT 28/13 A3025 RMK A01 T02820132  RH  040%=      5-min Rain = 0
KMC5 141700Z 02013KT 28/14 A3025 RMK A01 T02790135  RH  041%=      5-min Rain = 0
KMC5 141701Z 01013KT 28/14 A3024 RMK A01 T02800137  RH  041%=      5-min Rain = 0
KMC5 141702Z 01013G20KT 28/14 A3024 RMK A01 T02800136  RH  041%=      5-min Rain = 0
KMC5 141703Z 02018KT 28/14 A3024 RMK A01 T02800135  RH  041%=      5-min Rain = 0
KMC5 141704Z 02017G22KT 28/13 A3024 RMK A01 T02810133  RH  040%=      5-min Rain = 0
KMC5 141705Z 03013KT 28/13 A3024 RMK A01 T02770133  RH  041%=      5-min Rain = 0
KMC5 141706Z 03016KT 28/13 A3024 RMK A01 T02750134  RH  042%=      5-min Rain = 0
KMC5 141707Z 01011KT 27/14 A3024 RMK A01 T02740137  RH  043%=      5-min Rain = 0
KMC5 141708Z 03011G18KT 28/13 A3024 RMK A01 T02760134  RH  042%=      5-min Rain = 0
KMC5 141709Z 04016KT 28/13 A3024 RMK A01 T02770132  RH  041%=      5-min Rain = 0
KMC5 141710Z 03014KT 28/13 A3024 RMK A01 T02780132  RH  041%=      5-min Rain = 0
KMC5 141711Z 02013KT 28/13 A3024 RMK A01 T02800134  RH  041%=      5-min Rain = 0
KMC5 141712Z 01013KT 28/13 A3024 RMK A01 T02770134  RH  041%=      5-min Rain = 0
KMC5 141713Z 01015KT 27/13 A3023 RMK A01 T02730134  RH  042%=      5-min Rain = 0
KMC5 141714Z 01018KT 27/13 A3023 RMK A01 T02720134  RH  043%=      5-min Rain = 0
KMC5 141715Z 01012KT 27/13 A3023 RMK A01 T02700134  RH  043%=      5-min Rain = 0
KMC5 141716Z 03016KT 27/13 A3023 RMK A01 T02730134  RH  042%=      5-min Rain = 0
KMC5 141717Z 04014KT 27/13 A3023 RMK A01 T02740130  RH  041%=      5-min Rain = 0
KMC5 141718Z 05017KT 28/13 A3023 RMK A01 T02750132  RH  041%=      5-min Rain = 0
KMC5 141719Z 04017KT 28/13 A3023 RMK A01 T02750126  RH  040%=      5-min Rain = 0
KMC5 141720Z 04014KT 27/13 A3023 RMK A01 T02730128  RH  041%=      5-min Rain = 0
KMC5 141721Z 04014KT 27/13 A3023 RMK A01 T02730130  RH  041%=      5-min Rain = 0
KMC5 141722Z 04014KT 28/13 A3023 RMK A01 T02750129  RH  040%=      5-min Rain = 0
KMC5 141723Z 05014KT 28/13 A3023 RMK A01 T02750129  RH  041%=      5-min Rain = 0
KMC5 141724Z 05014KT 28/13 A3023 RMK A01 T02770131  RH  041%=      5-min Rain = 0
KMC5 141725Z 05015KT 28/13 A3022 RMK A01 T02800128  RH  039%=      5-min Rain = 0
KMC5 141726Z 05011KT 28/13 A3022 RMK A01 T02760126  RH  039%=      5-min Rain = 0
KMC5 141727Z 05015KT 27/13 A3022 RMK A01 T02740129  RH  041%=      5-min Rain = 0
KMC5 141728Z 03013G18KT 28/13 A3022 RMK A01 T02750133  RH  041%=      5-min Rain = 0
KMC5 141729Z 03017KT 28/13 A3022 RMK A01 T02800131  RH  040%=      5-min Rain = 0
KMC5 141730Z 03014KT 28/13 A3022 RMK A01 T02780130  RH  040%=      5-min Rain = 0
KMC5 141731Z 04014G19KT 28/13 A3022 RMK A01 T02760131  RH  041%=      5-min Rain = 0
KMC5 141732Z 05017KT 28/13 A3022 RMK A01 T02760131  RH  041%=      5-min Rain = 0
KMC5 141733Z 05014KT 28/13 A3022 RMK A01 T02760130  RH  041%=      5-min Rain = 0
KMC5 141734Z 04012KT 27/13 A3022 RMK A01 T02740130  RH  041%=      5-min Rain = 0
KMC5 141735Z 06009G16KT 28/13 A3022 RMK A01 T02750131  RH  041%=      5-min Rain = 0
KMC5 141736Z 06015KT 28/13 A3022 RMK A01 T02780130  RH  040%=      5-min Rain = 0
KMC5 141737Z 03015KT 28/13 A3022 RMK A01 T02790129  RH  040%=      5-min Rain = 0
KMC5 141738Z 03012G17KT 28/13 A3022 RMK A01 T02790129  RH  039%=      5-min Rain = 0
KMC5 141739Z 03011KT 28/13 A3022 RMK A01 T02780130  RH  040%=      5-min Rain = 0
KMC5 141740Z 03012KT 28/13 A3022 RMK A01 T02800131  RH  040%=      5-min Rain = 0
KMC5 141741Z 03014KT 28/13 A3022 RMK A01 T02840133  RH  040%=      5-min Rain = 0
KMC5 141742Z 04014KT 29/13 A3022 RMK A01 T02850129  RH  038%=      5-min Rain = 0
KMC5 141743Z 04014KT 28/13 A3022 RMK A01 T02820130  RH  039%=      5-min Rain = 0
KMC5 141744Z 05011KT 28/13 A3022 RMK A01 T02800128  RH  039%=      5-min Rain = 0
KMC5 141745Z 04008KT 28/13 A3022 RMK A01 T02770128  RH  040%=      5-min Rain = 0
KMC5 141746Z 04008KT 28/13 A3022 RMK A01 T02760130  RH  041%=      5-min Rain = 0
KMC5 141747Z 03009G16KT 28/13 A3022 RMK A01 T02770130  RH  040%=      5-min Rain = 0
KMC5 141748Z 01009KT 28/13 A3022 RMK A01 T02790132  RH  040%=      5-min Rain = 0
KMC5 141749Z 04011KT 28/13 A3022 RMK A01 T02810132  RH  040%=      5-min Rain = 0
KMC5 141750Z 05014KT 28/13 A3021 RMK A01 T02820132  RH  040%=      5-min Rain = 0
KMC5 141751Z 04013KT 28/13 A3022 RMK A01 T02810130  RH  039%=      5-min Rain = 0
KMC5 141752Z 04008KT 28/13 A3022 RMK A01 T02790130  RH  040%=      5-min Rain = 0
KMC5 141753Z 03007KT 28/13 A3022 RMK A01 T02780129  RH  040%=      5-min Rain = 0
KMC5 141754Z 05008KT 28/13 A3022 RMK A01 T02770131  RH  040%=      5-min Rain = 0
KMC5 141755Z 05013KT 28/13 A3022 RMK A01 T02770131  RH  041%=      5-min Rain = 0
KMC5 141756Z 04011KT 28/13 A3022 RMK A01 T02770131  RH  041%=      5-min Rain = 0
KMC5 141757Z 07008KT 28/14 A3022 RMK A01 T02800135  RH  041%=      5-min Rain = 0
KMC5 141758Z 06007KT 28/13 A3022 RMK A01 T02830132  RH  039%=      5-min Rain = 0
KMC5 141759Z 03009KT 28/13 A3022 RMK A01 T02820133  RH  040%=      5-min Rain = 0
KMC5 141800Z 04005KT 28/13 A3022 RMK A01 T02830132  RH  039%=      5-min Rain = 0
KMC5 141801Z 03003KT 28/13 A3022 RMK A01 T02810132  RH  040%=      5-min Rain = 0
KMC5 141802Z 04007G13KT 28/13 A3022 RMK A01 T02810131  RH  040%=      5-min Rain = 0
KMC5 141803Z 05012KT 28/13 A3021 RMK A01 T02800132  RH  040%=      5-min Rain = 0
KMC5 141804Z 05010KT 28/13 A3021 RMK A01 T02810131  RH  040%=      5-min Rain = 0
KMC5 141805Z 06007KT 28/13 A3021 RMK A01 T02800131  RH  040%=      5-min Rain = 0
KMC5 141806Z 08007KT 28/13 A3021 RMK A01 T02790131  RH  040%=      5-min Rain = 0
KMC5 141807Z 06011G17KT 28/13 A3021 RMK A01 T02820134  RH  040%=      5-min Rain = 0
KMC5 141808Z 07008KT 28/13 A3021 RMK A01 T02840132  RH  039%=      5-min Rain = 0
KMC5 141809Z 08006KT 28/13 A3021 RMK A01 T02830130  RH  039%=      5-min Rain = 0
KMC5 141810Z 06005KT 28/13 A3021 RMK A01 T02790129  RH  040%=      5-min Rain = 0
KMC5 141811Z 04003KT 28/13 A3021 RMK A01 T02770129  RH  040%=      5-min Rain = 0
KMC5 141812Z 01002KT 28/13 A3021 RMK A01 T02760129  RH  040%=      5-min Rain = 0
KMC5 141813Z 33001KT 28/13 A3021 RMK A01 T02760130  RH  041%=      5-min Rain = 0
KMC5 141814Z 10003KT 28/13 A3021 RMK A01 T02760130  RH  040%=      5-min Rain = 0
KMC5 141815Z 07006KT 28/13 A3021 RMK A01 T02770130  RH  040%=      5-min Rain = 0
KMC5 141816Z 07005KT 28/13 A3021 RMK A01 T02750128  RH  040%=      5-min Rain = 0
KMC5 141817Z 06001KT 27/13 A3021 RMK A01 T02740130  RH  041%=      5-min Rain = 0
KMC5 141818Z 23001KT 27/13 A3021 RMK A01 T02730129  RH  041%=      5-min Rain = 0
KMC5 141819Z 29002KT 27/13 A3021 RMK A01 T02740131  RH  041%=      5-min Rain = 0
KMC5 141820Z 06003KT 28/13 A302 RMK A01 T02770131  RH  041%=      5-min Rain = 0
KMC5 141821Z 09008KT 28/13 A3021 RMK A01 T02800132  RH  040%=      5-min Rain = 0
KMC5 141822Z 06008KT 28/13 A302 RMK A01 T02840132  RH  039%=      5-min Rain = 0
KMC5 141823Z 08008KT 29/13 A302 RMK A01 T02860132  RH  039%=      5-min Rain = 0
KMC5 141824Z 08009KT 29/13 A302 RMK A01 T02870129  RH  038%=      5-min Rain = 0
KMC5 141825Z 07008KT 29/13 A302 RMK A01 T02860128  RH  038%=      5-min Rain = 0
KMC5 141826Z 07006KT 28/13 A302 RMK A01 T02840128  RH  038%=      5-min Rain = 0
KMC5 141827Z 05005KT 28/13 A302 RMK A01 T02840129  RH  038%=      5-min Rain = 0
KMC5 141828Z 07006KT 29/13 A302 RMK A01 T02860131  RH  038%=      5-min Rain = 0
KMC5 141829Z 06006KT 29/13 A302 RMK A01 T02860129  RH  038%=      5-min Rain = 0
KMC5 141830Z 05006KT 28/13 A302 RMK A01 T02840128  RH  038%=      5-min Rain = 0
KMC5 141831Z 07003KT 28/13 A3019 RMK A01 T02820128  RH  038%=      5-min Rain = 0
KMC5 141832Z 08007KT 28/13 A3019 RMK A01 T02830131  RH  039%=      5-min Rain = 0
KMC5 141833Z 10007KT 29/13 A3019 RMK A01 T02880127  RH  037%=      5-min Rain = 0
KMC5 141834Z 10004KT 29/13 A3019 RMK A01 T02890127  RH  037%=      5-min Rain = 0
KMC5 141835Z 07005KT 29/13 A3019 RMK A01 T02890126  RH  037%=      5-min Rain = 0
KMC5 141836Z 09006KT 29/13 A3019 RMK A01 T02880131  RH  038%=      5-min Rain = 0
KMC5 141837Z 11006KT 29/13 A3019 RMK A01 T02920130  RH  037%=      5-min Rain = 0
KMC5 141838Z 07006KT 29/13 A3019 RMK A01 T02900130  RH  037%=      5-min Rain = 0
KMC5 141839Z 05009KT 29/13 A3019 RMK A01 T02910132  RH  038%=      5-min Rain = 0
KMC5 141840Z 04008KT 29/13 A3019 RMK A01 T02920129  RH  037%=      5-min Rain = 0
KMC5 141841Z 03003KT 29/13 A3019 RMK A01 T02890127  RH  037%=      5-min Rain = 0
KMC5 141842Z 07001KT 29/13 A3019 RMK A01 T02870129  RH  038%=      5-min Rain = 0
KMC5 141843Z 09006KT 29/13 A3019 RMK A01 T02880129  RH  038%=      5-min Rain = 0
KMC5 141844Z 12006KT 29/13 A3019 RMK A01 T02930131  RH  037%=      5-min Rain = 0
KMC5 141845Z 08006G11KT 30/13 A3019 RMK A01 T02970130  RH  036%=      5-min Rain = 0
KMC5 141846Z 07009KT 30/13 A3019 RMK A01 T02980130  RH  036%=      5-min Rain = 0
KMC5 141847Z 07007KT 30/13 A3019 RMK A01 T02970131  RH  036%=      5-min Rain = 0
KMC5 141848Z 08011KT 30/13 A3019 RMK A01 T02960130  RH  036%=      5-min Rain = 0
KMC5 141849Z 06008KT 30/13 A3019 RMK A01 T02950128  RH  036%=      5-min Rain = 0
KMC5 141850Z 06008KT 29/13 A3019 RMK A01 T02930129  RH  037%=      5-min Rain = 0
KMC5 141851Z 07010KT 29/13 A3019 RMK A01 T02930129  RH  037%=      5-min Rain = 0
KMC5 141852Z 07007KT 30/12 A3019 RMK A01 T02950124  RH  035%=      5-min Rain = 0
KMC5 141853Z 07006KT 29/12 A3019 RMK A01 T02940124  RH  035%=      5-min Rain = 0
KMC5 141854Z 10003KT 29/12 A3019 RMK A01 T02940119  RH  034%=      5-min Rain = 0
KMC5 141855Z 07001KT 29/12 A3019 RMK A01 T02930119  RH  034%=      5-min Rain = 0
KMC5 141856Z 05004KT 29/12 A3019 RMK A01 T02920120  RH  034%=      5-min Rain = 0
KMC5 141857Z 09011KT 29/12 A3019 RMK A01 T02940124  RH  035%=      5-min Rain = 0
KMC5 141858Z 08010KT 30/12 A3019 RMK A01 T02980124  RH  034%=      5-min Rain = 0
KMC5 141859Z 09010KT 30/13 A3019 RMK A01 T03010125  RH  034%=      5-min Rain = 0
KMC5 141900Z 09007KT 30/12 A3019 RMK A01 T03040123  RH  033%=      5-min Rain = 0
KMC5 141901Z 09005KT 30/12 A3019 RMK A01 T03000119  RH  033%=      5-min Rain = 0
KMC5 141902Z 09008KT 30/12 A3019 RMK A01 T02960121  RH  034%=      5-min Rain = 0
KMC5 141903Z 07007KT 30/12 A3019 RMK A01 T02960119  RH  034%=      5-min Rain = 0
KMC5 141904Z 05009KT 30/12 A3019 RMK A01 T02990120  RH  033%=      5-min Rain = 0
KMC5 141905Z 04011KT 30/12 A3018 RMK A01 T03000120  RH  033%=      5-min Rain = 0
KMC5 141906Z 05009KT 30/12 A3018 RMK A01 T02990119  RH  033%=      5-min Rain = 0
KMC5 141907Z 04008KT 30/12 A3018 RMK A01 T02960122  RH  034%=      5-min Rain = 0
KMC5 141908Z 04007KT 30/12 A3018 RMK A01 T02970122  RH  034%=      5-min Rain = 0
KMC5 141909Z 05006KT 30/12 A3018 RMK A01 T02970122  RH  034%=      5-min Rain = 0
KMC5 141910Z 10008KT 30/12 A3018 RMK A01 T02960124  RH  035%=      5-min Rain = 0
KMC5 141911Z 08008KT 30/13 A3018 RMK A01 T02980126  RH  035%=      5-min Rain = 0
KMC5 141912Z 07008KT 30/13 A3018 RMK A01 T03020126  RH  034%=      5-min Rain = 0
KMC5 141913Z 09010KT 30/13 A3018 RMK A01 T03040125  RH  033%=      5-min Rain = 0
KMC5 141914Z 09009KT 31/12 A3018 RMK A01 T03060124  RH  033%=      5-min Rain = 0
KMC5 141915Z 11010KT 31/12 A3019 RMK A01 T03050124  RH  033%=      5-min Rain = 0
KMC5 141916Z 12009KT 30/12 A3019 RMK A01 T03030123  RH  033%=      5-min Rain = 0
KMC5 141917Z 15006KT 30/12 A3019 RMK A01 T03010123  RH  034%=      5-min Rain = 0
KMC5 141918Z 15007KT 30/12 A3019 RMK A01 T03010123  RH  033%=      5-min Rain = 0
KMC5 141919Z 13009KT 30/12 A3019 RMK A01 T03020123  RH  033%=      5-min Rain = 0
KMC5 141920Z 14006KT 30/12 A3019 RMK A01 T03010123  RH  033%=      5-min Rain = 0
KMC5 141921Z 13003KT 30/13 A3019 RMK A01 T03010126  RH  034%=      5-min Rain = 0
KMC5 141922Z 06004KT 30/13 A3019 RMK A01 T03020127  RH  034%=      5-min Rain = 0
KMC5 141923Z 06007KT 31/12 A3019 RMK A01 T03050123  RH  033%=      5-min Rain = 0
KMC5 141924Z 06008KT 31/13 A3019 RMK A01 T03060125  RH  033%=      5-min Rain = 0
KMC5 141925Z 08009KT 31/12 A3019 RMK A01 T03060124  RH  033%=      5-min Rain = 0
KMC5 141926Z 09009KT 30/13 A3018 RMK A01 T03020126  RH  034%=      5-min Rain = 0
KMC5 141927Z 12009KT 30/13 A3018 RMK A01 T03020130  RH  035%=      5-min Rain = 0
KMC5 141928Z 14006KT 30/13 A3018 RMK A01 T03040129  RH  034%=      5-min Rain = 0
KMC5 141929Z 16005KT 30/13 A3018 RMK A01 T03040129  RH  034%=      5-min Rain = 0
KMC5 141930Z 09007KT 31/13 A3018 RMK A01 T03050130  RH  034%=      5-min Rain = 0
KMC5 141931Z 08008KT 31/13 A3018 RMK A01 T03060127  RH  033%=      5-min Rain = 0
KMC5 141932Z 09007KT 31/13 A3018 RMK A01 T03050126  RH  034%=      5-min Rain = 0
KMC5 141933Z 08010KT 30/13 A3018 RMK A01 T03030126  RH  034%=      5-min Rain = 0
KMC5 141934Z 08011KT 31/13 A3018 RMK A01 T03060125  RH  033%=      5-min Rain = 0
KMC5 141935Z 08009KT 31/13 A3018 RMK A01 T03050126  RH  033%=      5-min Rain = 0
KMC5 141936Z 08007KT 30/13 A3018 RMK A01 T03030125  RH  034%=      5-min Rain = 0
KMC5 141937Z 08007KT 30/13 A3018 RMK A01 T03020126  RH  034%=      5-min Rain = 0
KMC5 141938Z 09005KT 30/13 A3018 RMK A01 T03040125  RH  033%=      5-min Rain = 0
KMC5 141939Z 12002KT 30/13 A3018 RMK A01 T03030125  RH  033%=      5-min Rain = 0
KMC5 141940Z 02003KT 30/12 A3018 RMK A01 T03030124  RH  033%=      5-min Rain = 0
KMC5 141941Z 07005KT 30/12 A3018 RMK A01 T03030124  RH  033%=      5-min Rain = 0
KMC5 141942Z 08008KT 30/13 A3018 RMK A01 T03030127  RH  034%=      5-min Rain = 0
KMC5 141943Z 10010KT 31/13 A3018 RMK A01 T03060129  RH  034%=      5-min Rain = 0
KMC5 141944Z 11007KT 31/13 A3018 RMK A01 T03070128  RH  033%=      5-min Rain = 0
KMC5 141945Z 09003KT 31/13 A3018 RMK A01 T03070125  RH  033%=      5-min Rain = 0
KMC5 141946Z 10004KT 30/12 A3018 RMK A01 T03040124  RH  033%=      5-min Rain = 0
KMC5 141947Z 11009KT 30/13 A3018 RMK A01 T03030126  RH  034%=      5-min Rain = 0
KMC5 141948Z 14006KT 30/12 A3018 RMK A01 T03030124  RH  033%=      5-min Rain = 0
KMC5 141949Z 15006KT 30/13 A3018 RMK A01 T03030125  RH  034%=      5-min Rain = 0
KMC5 141950Z 21003KT 30/12 A3018 RMK A01 T03030123  RH  033%=      5-min Rain = 0
KMC5 141951Z 09010KT 30/13 A3018 RMK A01 T03030127  RH  034%=      5-min Rain = 0
KMC5 141952Z 08009KT 31/13 A3018 RMK A01 T03070126  RH  033%=      5-min Rain = 0
KMC5 141953Z 07007KT 31/13 A3018 RMK A01 T03070126  RH  033%=      5-min Rain = 0
KMC5 141954Z 07007KT 31/13 A3018 RMK A01 T03080127  RH  033%=      5-min Rain = 0
KMC5 141955Z 09006KT 31/13 A3018 RMK A01 T03080125  RH  033%=      5-min Rain = 0
KMC5 141956Z 08009KT 31/13 A3018 RMK A01 T03070128  RH  033%=      5-min Rain = 0
KMC5 141957Z 09009KT 31/13 A3018 RMK A01 T03110125  RH  032%=      5-min Rain = 0
KMC5 141958Z 09005KT 31/13 A3018 RMK A01 T03100128  RH  033%=      5-min Rain = 0
KMC5 141959Z 11003KT 31/12 A3018 RMK A01 T03120122  RH  031%=      5-min Rain = 0
KMC5 142000Z 11004KT 31/12 A3018 RMK A01 T03100122  RH  032%=      5-min Rain = 0
KMC5 142001Z 12002KT 31/12 A3018 RMK A01 T03080121  RH  032%=      5-min Rain = 0
KMC5 142002Z 11002KT 31/12 A3018 RMK A01 T03070121  RH  032%=      5-min Rain = 0
KMC5 142003Z 13006KT 31/13 A3018 RMK A01 T03070127  RH  033%=      5-min Rain = 0
KMC5 142004Z 12008KT 31/13 A3018 RMK A01 T03100129  RH  033%=      5-min Rain = 0
KMC5 142005Z 14007KT 31/13 A3018 RMK A01 T03100128  RH  033%=      5-min Rain = 0
KMC5 142006Z 11010KT 31/13 A3018 RMK A01 T03090128  RH  033%=      5-min Rain = 0
KMC5 142007Z 09008KT 31/13 A3018 RMK A01 T03090125  RH  033%=      5-min Rain = 0
KMC5 142008Z 09007KT 31/13 A3018 RMK A01 T03080126  RH  033%=      5-min Rain = 0
KMC5 142009Z 09008KT 31/13 A3018 RMK A01 T03080125  RH  033%=      5-min Rain = 0
KMC5 142010Z 09003KT 31/12 A3018 RMK A01 T03060123  RH  033%=      5-min Rain = 0
KMC5 142011Z 09003KT 30/13 A3017 RMK A01 T03040125  RH  033%=      5-min Rain = 0
KMC5 142012Z 12007KT 31/13 A3017 RMK A01 T03060125  RH  033%=      5-min Rain = 0
KMC5 142013Z 12007KT 31/12 A3017 RMK A01 T03070124  RH  033%=      5-min Rain = 0
KMC5 142014Z 12004KT 31/12 A3017 RMK A01 T03070123  RH  032%=      5-min Rain = 0
KMC5 142015Z 14008KT 31/12 A3017 RMK A01 T03070124  RH  033%=      5-min Rain = 0
KMC5 142016Z 14006KT 31/12 A3017 RMK A01 T03070122  RH  032%=      5-min Rain = 0
KMC5 142017Z 16005KT 31/12 A3017 RMK A01 T03060122  RH  032%=      5-min Rain = 0
KMC5 142018Z 18006KT 31/12 A3017 RMK A01 T03060122  RH  032%=      5-min Rain = 0
KMC5 142019Z 19005KT 30/12 A3017 RMK A01 T03030120  RH  032%=      5-min Rain = 0
KMC5 142020Z 18004KT 30/12 A3017 RMK A01 T03020122  RH  033%=      5-min Rain = 0
KMC5 142021Z 20003KT 30/12 A3017 RMK A01 T03030123  RH  033%=      5-min Rain = 0
KMC5 142022Z 24001KT 31/12 A3017 RMK A01 T03060122  RH  032%=      5-min Rain = 0
KMC5 142023Z 06006KT 31/12 A3017 RMK A01 T03080124  RH  032%=      5-min Rain = 0
KMC5 142024Z 05006KT 31/12 A3017 RMK A01 T03090123  RH  032%=      5-min Rain = 0
KMC5 142025Z 06004KT 31/12 A3017 RMK A01 T03090122  RH  032%=      5-min Rain = 0
KMC5 142026Z 05005KT 31/12 A3017 RMK A01 T03100124  RH  032%=      5-min Rain = 0
KMC5 142027Z 07006KT 31/12 A3017 RMK A01 T03100123  RH  032%=      5-min Rain = 0
KMC5 142028Z 11002KT 31/12 A3017 RMK A01 T03090123  RH  032%=      5-min Rain = 0
KMC5 142029Z 06003KT 31/12 A3017 RMK A01 T03080124  RH  032%=      5-min Rain = 0
KMC5 142030Z 10008KT 31/13 A3016 RMK A01 T03100126  RH  032%=      5-min Rain = 0
KMC5 142031Z 08008KT 31/13 A3016 RMK A01 T03110126  RH  032%=      5-min Rain = 0
KMC5 142032Z 06009KT 31/12 A3016 RMK A01 T03120124  RH  032%=      5-min Rain = 0
KMC5 142033Z 06008KT 31/12 A3016 RMK A01 T03120124  RH  032%=      5-min Rain = 0
KMC5 142034Z 08009KT 31/12 A3016 RMK A01 T03110123  RH  032%=      5-min Rain = 0
KMC5 142035Z 08009KT 31/13 A3016 RMK A01 T03100125  RH  032%=      5-min Rain = 0
KMC5 142036Z 09009KT 31/12 A3016 RMK A01 T03130124  RH  032%=      5-min Rain = 0
KMC5 142037Z 09007KT 31/12 A3016 RMK A01 T03100120  RH  031%=      5-min Rain = 0
KMC5 142038Z 05007KT 31/12 A3016 RMK A01 T03060122  RH  032%=      5-min Rain = 0
KMC5 142039Z 08006KT 31/12 A3016 RMK A01 T03060121  RH  032%=      5-min Rain = 0
KMC5 142040Z 04005KT 31/12 A3016 RMK A01 T03070124  RH  033%=      5-min Rain = 0
KMC5 142041Z 05005KT 31/12 A3016 RMK A01 T03110123  RH  032%=      5-min Rain = 0
KMC5 142042Z 06007KT 31/12 A3016 RMK A01 T03130123  RH  031%=      5-min Rain = 0
KMC5 142043Z 06005KT 31/12 A3016 RMK A01 T03120119  RH  031%=      5-min Rain = 0
KMC5 142044Z 08007KT 31/12 A3016 RMK A01 T03080120  RH  032%=      5-min Rain = 0
KMC5 142045Z 09007KT 31/12 A3016 RMK A01 T03070121  RH  032%=      5-min Rain = 0
KMC5 142046Z 09006KT 31/12 A3016 RMK A01 T03070120  RH  032%=      5-min Rain = 0
KMC5 142047Z 09004KT 31/12 A3016 RMK A01 T03060118  RH  031%=      5-min Rain = 0
KMC5 142048Z 04003KT 31/12 A3016 RMK A01 T03060120  RH  032%=      5-min Rain = 0
KMC5 142049Z 06002KT 31/12 A3016 RMK A01 T03070119  RH  032%=      5-min Rain = 0
KMC5 142050Z 15003KT 31/12 A3016 RMK A01 T03080121  RH  032%=      5-min Rain = 0
KMC5 142051Z 15004KT 31/12 A3016 RMK A01 T03090121  RH  032%=      5-min Rain = 0
KMC5 142052Z 14006KT 31/12 A3016 RMK A01 T03110122  RH  031%=      5-min Rain = 0
KMC5 142053Z 11008KT 31/12 A3016 RMK A01 T03130123  RH  031%=      5-min Rain = 0
KMC5 142054Z 09007KT 31/12 A3016 RMK A01 T03140119  RH  030%=      5-min Rain = 0
KMC5 142055Z 09005KT 31/12 A3016 RMK A01 T03120119  RH  031%=      5-min Rain = 0
KMC5 142056Z 12007KT 31/12 A3016 RMK A01 T03110123  RH  032%=      5-min Rain = 0
KMC5 142057Z 12005KT 31/12 A3016 RMK A01 T03120122  RH  031%=      5-min Rain = 0
KMC5 142058Z 12006KT 31/12 A3016 RMK A01 T03120122  RH  031%=      5-min Rain = 0
KMC5 142059Z 08004KT 31/12 A3016 RMK A01 T03120122  RH  031%=      5-min Rain = 0
KMC5 142100Z 10004KT 31/12 A3016 RMK A01 T03130122  RH  031%=      5-min Rain = 0
KMC5 142101Z 12006KT 32/12 A3016 RMK A01 T03150121  RH  031%=      5-min Rain = 0
KMC5 142102Z 14006KT 31/13 A3015 RMK A01 T03140125  RH  032%=      5-min Rain = 0
KMC5 142103Z 14006KT 31/12 A3015 RMK A01 T03140123  RH  031%=      5-min Rain = 0
KMC5 142104Z 09008KT 31/13 A3015 RMK A01 T03130126  RH  032%=      5-min Rain = 0
KMC5 142105Z 11006KT 31/13 A3015 RMK A01 T03140127  RH  032%=      5-min Rain = 0
KMC5 142106Z 15005KT 32/12 A3015 RMK A01 T03160120  RH  030%=      5-min Rain = 0
KMC5 142107Z 17005KT 32/12 A3015 RMK A01 T03150124  RH  031%=      5-min Rain = 0
KMC5 142108Z 19001KT 32/12 A3015 RMK A01 T03180122  RH  030%=      5-min Rain = 0
KMC5 142109Z 13002KT 32/13 A3015 RMK A01 T03200127  RH  031%=      5-min Rain = 0
KMC5 142110Z 05002KT 32/13 A3015 RMK A01 T03220129  RH  031%=      5-min Rain = 0
KMC5 142111Z 06008KT 32/13 A3015 RMK A01 T03230127  RH  030%=      5-min Rain = 0
KMC5 142112Z 07006KT 32/13 A3015 RMK A01 T03240126  RH  030%=      5-min Rain = 0
KMC5 142113Z 08004KT 32/12 A3015 RMK A01 T03220124  RH  030%=      5-min Rain = 0
KMC5 142114Z 09005KT 32/12 A3015 RMK A01 T03190124  RH  030%=      5-min Rain = 0
KMC5 142115Z 08005KT 32/12 A3015 RMK A01 T03170123  RH  030%=      5-min Rain = 0
KMC5 142116Z 06004KT 32/12 A3015 RMK A01 T03160121  RH  030%=      5-min Rain = 0
KMC5 142117Z 07005KT 31/12 A3015 RMK A01 T03130121  RH  031%=      5-min Rain = 0
KMC5 142118Z 09004KT 31/12 A3015 RMK A01 T03110121  RH  031%=      5-min Rain = 0
KMC5 142119Z 07003KT 31/12 A3015 RMK A01 T03100122  RH  032%=      5-min Rain = 0
KMC5 142120Z 06004KT 31/12 A3015 RMK A01 T03110124  RH  032%=      5-min Rain = 0
KMC5 142121Z 08008KT 32/13 A3015 RMK A01 T03150127  RH  032%=      5-min Rain = 0
KMC5 142122Z 08008KT 32/13 A3015 RMK A01 T03180125  RH  031%=      5-min Rain = 0
KMC5 142123Z 08008KT 32/13 A3015 RMK A01 T03180125  RH  031%=      5-min Rain = 0
KMC5 142124Z 09007KT 32/12 A3015 RMK A01 T03180124  RH  030%=      5-min Rain = 0
KMC5 142125Z 08006KT 32/12 A3015 RMK A01 T03170123  RH  031%=      5-min Rain = 0
KMC5 142126Z 08005KT 31/12 A3015 RMK A01 T03140123  RH  031%=      5-min Rain = 0
KMC5 142127Z 11006KT 32/12 A3015 RMK A01 T03150124  RH  031%=      5-min Rain = 0
KMC5 142128Z 14006KT 32/12 A3014 RMK A01 T03150122  RH  031%=      5-min Rain = 0
KMC5 142129Z 15005KT 32/12 A3014 RMK A01 T03150121  RH  031%=      5-min Rain = 0
KMC5 142130Z 16004KT 31/12 A3014 RMK A01 T03130122  RH  031%=      5-min Rain = 0
KMC5 142131Z 05006KT 31/13 A3014 RMK A01 T03140125  RH  031%=      5-min Rain = 0
KMC5 142132Z 05008KT 32/13 A3014 RMK A01 T03170125  RH  031%=      5-min Rain = 0
KMC5 142133Z 07009KT 32/13 A3014 RMK A01 T03190125  RH  031%=      5-min Rain = 0
KMC5 142134Z 05011KT 32/13 A3014 RMK A01 T03190125  RH  031%=      5-min Rain = 0
KMC5 142135Z 05011KT 32/12 A3014 RMK A01 T03180123  RH  030%=      5-min Rain = 0
KMC5 142136Z 04010KT 32/12 A3014 RMK A01 T03150123  RH  031%=      5-min Rain = 0
KMC5 142137Z 03010KT 31/12 A3014 RMK A01 T03140122  RH  031%=      5-min Rain = 0
KMC5 142138Z 02007KT 31/12 A3014 RMK A01 T03120122  RH  031%=      5-min Rain = 0
KMC5 142139Z 05007G12KT 31/13 A3014 RMK A01 T03130126  RH  032%=      5-min Rain = 0
KMC5 142140Z 06008KT 32/12 A3014 RMK A01 T03170123  RH  031%=      5-min Rain = 0
KMC5 142141Z 05007KT 32/12 A3014 RMK A01 T03160124  RH  031%=      5-min Rain = 0
KMC5 142142Z 05007KT 32/12 A3014 RMK A01 T03160123  RH  031%=      5-min Rain = 0
KMC5 142143Z 04009KT 32/12 A3014 RMK A01 T03150123  RH  031%=      5-min Rain = 0
KMC5 142144Z 03008KT 32/12 A3014 RMK A01 T03150124  RH  031%=      5-min Rain = 0
KMC5 142145Z 04007KT 32/12 A3014 RMK A01 T03180124  RH  031%=      5-min Rain = 0
KMC5 142146Z 04005KT 32/12 A3014 RMK A01 T03170123  RH  031%=      5-min Rain = 0
KMC5 142147Z 02004KT 31/12 A3014 RMK A01 T03140121  RH  031%=      5-min Rain = 0
KMC5 142148Z 02002KT 31/12 A3014 RMK A01 T03130123  RH  031%=      5-min Rain = 0
KMC5 142149Z 33003KT 31/12 A3014 RMK A01 T03130123  RH  031%=      5-min Rain = 0
KMC5 142150Z 31003KT 32/12 A3014 RMK A01 T03150121  RH  030%=      5-min Rain = 0
KMC5 142151Z 29003KT 31/12 A3014 RMK A01 T03130121  RH  031%=      5-min Rain = 0
KMC5 142152Z 30002KT 31/12 A3014 RMK A01 T03120123  RH  031%=      5-min Rain = 0
KMC5 142153Z 17000KT 31/12 A3013 RMK A01 T03140121  RH  031%=      5-min Rain = 0
KMC5 142154Z 00000KT 32/12 A3013 RMK A01 T03160121  RH  030%=      5-min Rain = 0
KMC5 142155Z 01001KT 32/12 A3013 RMK A01 T03170123  RH  030%=      5-min Rain = 0
KMC5 142156Z 03004KT 32/12 A3013 RMK A01 T03200124  RH  030%=      5-min Rain = 0
KMC5 142157Z 02003KT 32/12 A3013 RMK A01 T03200123  RH  030%=      5-min Rain = 0
KMC5 142158Z 02006KT 32/13 A3013 RMK A01 T03200125  RH  031%=      5-min Rain = 0
KMC5 142159Z 03006KT 32/12 A3013 RMK A01 T03200123  RH  030%=      5-min Rain = 0
KMC5 142200Z 01005KT 32/12 A3013 RMK A01 T03170122  RH  030%=      5-min Rain = 0
KMC5 142201Z 35005KT 32/12 A3013 RMK A01 T03160123  RH  031%=      5-min Rain = 0
KMC5 142202Z 01004KT 32/13 A3013 RMK A01 T03160125  RH  031%=      5-min Rain = 0
KMC5 142203Z 07006KT 32/13 A3013 RMK A01 T03190126  RH  031%=      5-min Rain = 0
KMC5 142204Z 07008KT 32/12 A3013 RMK A01 T03210123  RH  030%=      5-min Rain = 0
KMC5 142205Z 06006KT 32/12 A3013 RMK A01 T03200124  RH  030%=      5-min Rain = 0
KMC5 142206Z 05004KT 32/12 A3013 RMK A01 T03190121  RH  030%=      5-min Rain = 0
KMC5 142207Z 06009KT 32/12 A3013 RMK A01 T03170123  RH  030%=      5-min Rain = 0
KMC5 142208Z 05010KT 32/12 A3013 RMK A01 T03180123  RH  030%=      5-min Rain = 0
KMC5 142209Z 06008KT 32/12 A3013 RMK A01 T03190124  RH  030%=      5-min Rain = 0
KMC5 142210Z 09006KT 32/12 A3013 RMK A01 T03210123  RH  030%=      5-min Rain = 0
KMC5 142211Z 07008KT 32/12 A3013 RMK A01 T03200122  RH  030%=      5-min Rain = 0
KMC5 142212Z 05006KT 32/12 A3013 RMK A01 T03170122  RH  030%=      5-min Rain = 0
KMC5 142213Z 07005KT 32/12 A3013 RMK A01 T03150123  RH  031%=      5-min Rain = 0
KMC5 142214Z 07004KT 32/12 A3013 RMK A01 T03160120  RH  030%=      5-min Rain = 0
KMC5 142215Z 05004KT 32/12 A3013 RMK A01 T03150122  RH  031%=      5-min Rain = 0
KMC5 142216Z 03003KT 32/12 A3013 RMK A01 T03150120  RH  030%=      5-min Rain = 0
KMC5 142217Z 34001KT 32/12 A3013 RMK A01 T03150119  RH  030%=      5-min Rain = 0
KMC5 142218Z 30001KT 32/12 A3013 RMK A01 T03150121  RH  031%=      5-min Rain = 0
KMC5 142219Z 32001KT 32/12 A3013 RMK A01 T03170119  RH  030%=      5-min Rain = 0
KMC5 142220Z 10001KT 32/12 A3013 RMK A01 T03170118  RH  030%=      5-min Rain = 0
KMC5 142221Z 08006KT 32/12 A3013 RMK A01 T03180123  RH  030%=      5-min Rain = 0
KMC5 142222Z 10009KT 32/12 A3013 RMK A01 T03200124  RH  030%=      5-min Rain = 0
KMC5 142223Z 12006KT 32/12 A3013 RMK A01 T03210122  RH  030%=      5-min Rain = 0
KMC5 142224Z 12005KT 32/12 A3013 RMK A01 T03190123  RH  030%=      5-min Rain = 0
KMC5 142225Z 10007KT 32/12 A3012 RMK A01 T03200123  RH  030%=      5-min Rain = 0
KMC5 142226Z 09006KT 32/12 A3012 RMK A01 T03200122  RH  030%=      5-min Rain = 0
KMC5 142227Z 09009KT 32/12 A3012 RMK A01 T03180122  RH  030%=      5-min Rain = 0
KMC5 142228Z 09006KT 32/12 A3013 RMK A01 T03180122  RH  030%=      5-min Rain = 0
KMC5 142229Z 12006KT 32/12 A3012 RMK A01 T03180121  RH  030%=      5-min Rain = 0
KMC5 142230Z 12006KT 32/12 A3012 RMK A01 T03170120  RH  030%=      5-min Rain = 0
KMC5 142231Z 09007KT 32/12 A3012 RMK A01 T03160122  RH  030%=      5-min Rain = 0
KMC5 142232Z 09008KT 32/12 A3012 RMK A01 T03190123  RH  030%=      5-min Rain = 0
KMC5 142233Z 10009KT 32/12 A3012 RMK A01 T03190122  RH  030%=      5-min Rain = 0
KMC5 142234Z 10008KT 32/12 A3012 RMK A01 T03180122  RH  030%=      5-min Rain = 0
KMC5 142235Z 10008KT 32/12 A3012 RMK A01 T03190124  RH  030%=      5-min Rain = 0
KMC5 142236Z 10008KT 32/12 A3012 RMK A01 T03210122  RH  030%=      5-min Rain = 0
KMC5 142237Z 10007KT 32/12 A3012 RMK A01 T03200121  RH  030%=      5-min Rain = 0
KMC5 142238Z 10004KT 32/12 A3012 RMK A01 T03190122  RH  030%=      5-min Rain = 0
KMC5 142239Z 08002KT 32/12 A3012 RMK A01 T03190121  RH  030%=      5-min Rain = 0
KMC5 142240Z 09003KT 32/12 A3012 RMK A01 T03200120  RH  030%=      5-min Rain = 0
KMC5 142241Z 09004KT 32/12 A3012 RMK A01 T03180120  RH  030%=      5-min Rain = 0
KMC5 142242Z 12004KT 32/12 A3012 RMK A01 T03170121  RH  030%=      5-min Rain = 0
KMC5 142243Z 11004KT 32/12 A3012 RMK A01 T03170121  RH  030%=      5-min Rain = 0
KMC5 142244Z 07006KT 32/12 A3012 RMK A01 T03180123  RH  030%=      5-min Rain = 0
KMC5 142245Z 06008KT 32/12 A3012 RMK A01 T03200123  RH  030%=      5-min Rain = 0
KMC5 142246Z 05005KT 32/12 A3012 RMK A01 T03210122  RH  030%=      5-min Rain = 0
KMC5 142247Z 08006KT 32/12 A3012 RMK A01 T03210122  RH  030%=      5-min Rain = 0
KMC5 142248Z 08004KT 32/12 A3012 RMK A01 T03200120  RH  030%=      5-min Rain = 0
KMC5 142249Z 10003KT 32/12 A3012 RMK A01 T03180121  RH  030%=      5-min Rain = 0
KMC5 142250Z 09006KT 32/12 A3012 RMK A01 T03180120  RH  030%=      5-min Rain = 0
KMC5 142251Z 10005KT 32/12 A3012 RMK A01 T03160120  RH  030%=      5-min Rain = 0
KMC5 142252Z 13005KT 32/12 A3012 RMK A01 T03160120  RH  030%=      5-min Rain = 0
KMC5 142253Z 13005KT 32/12 A3012 RMK A01 T03170120  RH  030%=      5-min Rain = 0
KMC5 142254Z 12004KT 32/12 A3012 RMK A01 T03170120  RH  030%=      5-min Rain = 0
KMC5 142255Z 12006KT 32/12 A3012 RMK A01 T03170121  RH  030%=      5-min Rain = 0
KMC5 142256Z 11005KT 32/12 A3012 RMK A01 T03180119  RH  030%=      5-min Rain = 0
KMC5 142257Z 10005KT 32/12 A3012 RMK A01 T03180120  RH  030%=      5-min Rain = 0
KMC5 142258Z 08005KT 32/12 A3012 RMK A01 T03170120  RH  030%=      5-min Rain = 0
KMC5 142259Z 07003KT 32/12 A3012 RMK A01 T03160119  RH  030%=      5-min Rain = 0
KMC5 142300Z 14002KT 32/12 A3012 RMK A01 T03160119  RH  030%=      5-min Rain = 0
KMC5 142301Z 20003KT 32/12 A3012 RMK A01 T03160119  RH  030%=      5-min Rain = 0
KMC5 142302Z 17003KT 32/12 A3012 RMK A01 T03160118  RH  030%=      5-min Rain = 0
KMC5 142303Z 14005KT 32/12 A3012 RMK A01 T03150121  RH  031%=      5-min Rain = 0
KMC5 142304Z 13006KT 32/12 A3012 RMK A01 T03160122  RH  030%=      5-min Rain = 0
KMC5 142305Z 14004KT 32/12 A3012 RMK A01 T03160121  RH  030%=      5-min Rain = 0
KMC5 142306Z 16003KT 32/12 A3012 RMK A01 T03170121  RH  030%=      5-min Rain = 0
KMC5 142307Z 13003KT 32/12 A3012 RMK A01 T03180123  RH  030%=      5-min Rain = 0
KMC5 142308Z 12004KT 32/12 A3012 RMK A01 T03190123  RH  030%=      5-min Rain = 0
KMC5 142309Z 09003KT 32/12 A3012 RMK A01 T03200121  RH  030%=      5-min Rain = 0
KMC5 142310Z 09003KT 32/12 A3012 RMK A01 T03200121  RH  030%=      5-min Rain = 0
KMC5 142311Z 09004KT 32/12 A3012 RMK A01 T03190119  RH  029%=      5-min Rain = 0
KMC5 142312Z 09002KT 32/12 A3012 RMK A01 T03170118  RH  030%=      5-min Rain = 0
KMC5 142313Z 14005KT 32/12 A3012 RMK A01 T03160119  RH  030%=      5-min Rain = 0
KMC5 142314Z 12004KT 32/12 A3012 RMK A01 T03170119  RH  030%=      5-min Rain = 0
KMC5 142315Z 10006KT 32/12 A3012 RMK A01 T03160119  RH  030%=      5-min Rain = 0
KMC5 142316Z 09003KT 32/12 A3012 RMK A01 T03170118  RH  030%=      5-min Rain = 0
KMC5 142317Z 08004KT 32/12 A3012 RMK A01 T03160119  RH  030%=      5-min Rain = 0
KMC5 142318Z 06005KT 32/12 A3012 RMK A01 T03170118  RH  030%=      5-min Rain = 0
KMC5 142319Z 06008KT 32/12 A3012 RMK A01 T03170120  RH  030%=      5-min Rain = 0
KMC5 142320Z 06006KT 32/12 A3012 RMK A01 T03180120  RH  030%=      5-min Rain = 0
KMC5 142321Z 08003KT 32/12 A3012 RMK A01 T03190118  RH  029%=      5-min Rain = 0
KMC5 142322Z 05003KT 32/12 A3012 RMK A01 T03170117  RH  029%=      5-min Rain = 0
KMC5 142323Z 06004KT 32/12 A3012 RMK A01 T03160118  RH  030%=      5-min Rain = 0
KMC5 142324Z 09007KT 32/12 A3012 RMK A01 T03160119  RH  030%=      5-min Rain = 0
KMC5 142325Z 09006KT 32/12 A3012 RMK A01 T03150118  RH  030%=      5-min Rain = 0
KMC5 142326Z 09007KT 31/12 A3012 RMK A01 T03140119  RH  030%=      5-min Rain = 0
KMC5 142327Z 08007KT 32/12 A3012 RMK A01 T03150121  RH  031%=      5-min Rain = 0
KMC5 142328Z 06008KT 32/12 A3012 RMK A01 T03170120  RH  030%=      5-min Rain = 0
KMC5 142329Z 06007KT 32/12 A3012 RMK A01 T03170120  RH  030%=      5-min Rain = 0
KMC5 142330Z 07007KT 32/12 A3012 RMK A01 T03160119  RH  030%=      5-min Rain = 0
KMC5 142331Z 06007KT 32/12 A3012 RMK A01 T03160120  RH  030%=      5-min Rain = 0
KMC5 142332Z 06006KT 32/12 A3012 RMK A01 T03160121  RH  030%=      5-min Rain = 0
KMC5 142333Z 06007KT 32/12 A3012 RMK A01 T03160119  RH  030%=      5-min Rain = 0
KMC5 142334Z 05005KT 32/12 A3012 RMK A01 T03160120  RH  030%=      5-min Rain = 0
KMC5 142335Z 05006KT 32/12 A3012 RMK A01 T03170122  RH  031%=      5-min Rain = 0
KMC5 142336Z 06007KT 32/12 A3012 RMK A01 T03180122  RH  030%=      5-min Rain = 0
KMC5 142337Z 05007KT 32/12 A3012 RMK A01 T03180119  RH  030%=      5-min Rain = 0
KMC5 142338Z 06006KT 32/12 A3012 RMK A01 T03160119  RH  030%=      5-min Rain = 0
KMC5 142339Z 06006KT 32/12 A3012 RMK A01 T03160120  RH  030%=      5-min Rain = 0
KMC5 142340Z 07004KT 32/12 A3012 RMK A01 T03150118  RH  030%=      5-min Rain = 0
KMC5 142341Z 08004KT 31/12 A3012 RMK A01 T03130118  RH  030%=      5-min Rain = 0
KMC5 142342Z 07003KT 31/12 A3012 RMK A01 T03130118  RH  030%=      5-min Rain = 0
KMC5 142343Z 08004KT 31/12 A3012 RMK A01 T03140119  RH  030%=      5-min Rain = 0
KMC5 142344Z 09003KT 31/12 A3012 RMK A01 T03140119  RH  030%=      5-min Rain = 0
KMC5 142345Z 05003KT 32/12 A3012 RMK A01 T03150120  RH  030%=      5-min Rain = 0
KMC5 142346Z 04003KT 32/12 A3012 RMK A01 T03150120  RH  030%=      5-min Rain = 0
KMC5 142347Z 02002KT 32/12 A3012 RMK A01 T03160120  RH  030%=      5-min Rain = 0
KMC5 142348Z 02004KT 32/12 A3012 RMK A01 T03170120  RH  030%=      5-min Rain = 0
KMC5 142349Z 01003KT 32/12 A3012 RMK A01 T03160118  RH  030%=      5-min Rain = 0
KMC5 142350Z 01003KT 32/12 A3012 RMK A01 T03150118  RH  030%=      5-min Rain = 0
KMC5 142351Z 04002KT 32/12 A3012 RMK A01 T03150119  RH  030%=      5-min Rain = 0
KMC5 142352Z 05002KT 32/12 A3012 RMK A01 T03150119  RH  030%=      5-min Rain = 0
KMC5 142353Z 05002KT 31/12 A3012 RMK A01 T03140117  RH  030%=      5-min Rain = 0
KMC5 142354Z 03003KT 31/12 A3012 RMK A01 T03140119  RH  030%=      5-min Rain = 0
KMC5 142355Z 02003KT 31/12 A3012 RMK A01 T03140118  RH  030%=      5-min Rain = 0
KMC5 142356Z 00002KT 31/12 A3012 RMK A01 T03140118  RH  030%=      5-min Rain = 0
KMC5 142357Z 36001KT 31/12 A3012 RMK A01 T03130116  RH  030%=      5-min Rain = 0
KMC5 142358Z 05003KT 31/12 A3012 RMK A01 T03130119  RH  030%=      5-min Rain = 0
KMC5 142359Z 08004KT 31/12 A3012 RMK A01 T03140120  RH  030%=      5-min Rain = 0
KMC5 150000Z 09005KT 32/12 A3012 RMK A01 T03150120  RH  030%=      5-min Rain = 0
KMC5 150001Z 09006KT 32/12 A3012 RMK A01 T03150119  RH  030%=      5-min Rain = 0
KMC5 150002Z 09004KT 31/12 A3012 RMK A01 T03140118  RH  030%=      5-min Rain = 0
KMC5 150003Z 10003KT 31/12 A3012 RMK A01 T03130118  RH  030%=      5-min Rain = 0
KMC5 150004Z 10004KT 31/12 A3012 RMK A01 T03130118  RH  030%=      5-min Rain = 0
KMC5 150005Z 09008KT 31/12 A3011 RMK A01 T03130120  RH  031%=      5-min Rain = 0
KMC5 150006Z 09007KT 31/12 A3012 RMK A01 T03130122  RH  031%=      5-min Rain = 0
KMC5 150007Z 10009KT 31/12 A3012 RMK A01 T03140119  RH  030%=      5-min Rain = 0
KMC5 150008Z 10008KT 31/12 A3012 RMK A01 T03130120  RH  031%=      5-min Rain = 0
KMC5 150009Z 10007KT 31/12 A3012 RMK A01 T03120118  RH  031%=      5-min Rain = 0
KMC5 150010Z 10008KT 31/12 A3012 RMK A01 T03100118  RH  031%=      5-min Rain = 0
KMC5 150011Z 11008KT 31/12 A3012 RMK A01 T03090118  RH  031%=      5-min Rain = 0
KMC5 150012Z 10006KT 31/12 A3011 RMK A01 T03090119  RH  031%=      5-min Rain = 0
KMC5 150013Z 09006KT 31/12 A3011 RMK A01 T03090117  RH  031%=      5-min Rain = 0
KMC5 150014Z 10006KT 31/12 A3011 RMK A01 T03080119  RH  031%=      5-min Rain = 0
KMC5 150015Z 09005KT 31/12 A3011 RMK A01 T03090119  RH  031%=      5-min Rain = 0
KMC5 150016Z 08006KT 31/12 A3011 RMK A01 T03090119  RH  031%=      5-min Rain = 0
KMC5 150017Z 09006KT 31/12 A3011 RMK A01 T03090119  RH  031%=      5-min Rain = 0
KMC5 150018Z 08006KT 31/12 A3011 RMK A01 T03090120  RH  031%=      5-min Rain = 0
KMC5 150019Z 11006KT 31/12 A3011 RMK A01 T03090121  RH  031%=      5-min Rain = 0
KMC5 150020Z 11007KT 31/12 A3011 RMK A01 T03090119  RH  031%=      5-min Rain = 0
KMC5 150021Z 10007KT 31/12 A3011 RMK A01 T03090119  RH  031%=      5-min Rain = 0
KMC5 150022Z 09006KT 31/12 A3012 RMK A01 T03090120  RH  031%=      5-min Rain = 0
KMC5 150023Z 10006KT 31/12 A3012 RMK A01 T03090119  RH  031%=      5-min Rain = 0
KMC5 150024Z 11005KT 31/12 A3012 RMK A01 T03080117  RH  031%=      5-min Rain = 0
KMC5 150025Z 11004KT 31/12 A3012 RMK A01 T03080118  RH  031%=      5-min Rain = 0
KMC5 150026Z 12003KT 31/12 A3012 RMK A01 T03080118  RH  031%=      5-min Rain = 0
KMC5 150027Z 09003KT 31/12 A3012 RMK A01 T03080118  RH  031%=      5-min Rain = 0
KMC5 150028Z 10003KT 31/12 A3012 RMK A01 T03080119  RH  031%=      5-min Rain = 0
KMC5 150029Z 10004KT 31/12 A3012 RMK A01 T03080119  RH  031%=      5-min Rain = 0
KMC5 150030Z 11004KT 31/12 A3012 RMK A01 T03080122  RH  032%=      5-min Rain = 0
KMC5 150031Z 11005KT 31/12 A3012 RMK A01 T03080119  RH  031%=      5-min Rain = 0
KMC5 150032Z 11007KT 31/12 A3012 RMK A01 T03080121  RH  032%=      5-min Rain = 0
KMC5 150033Z 12007KT 31/12 A3012 RMK A01 T03080119  RH  031%=      5-min Rain = 0
KMC5 150034Z 12005KT 31/12 A3012 RMK A01 T03060118  RH  031%=      5-min Rain = 0
KMC5 150035Z 13004KT 31/12 A3012 RMK A01 T03060118  RH  031%=      5-min Rain = 0
KMC5 150036Z 13004KT 31/12 A3012 RMK A01 T03060121  RH  032%=      5-min Rain = 0
KMC5 150037Z 12004KT 31/12 A3012 RMK A01 T03060122  RH  032%=      5-min Rain = 0
KMC5 150038Z 12006KT 31/12 A3012 RMK A01 T03050122  RH  032%=      5-min Rain = 0
KMC5 150039Z 12007KT 31/12 A3012 RMK A01 T03050120  RH  032%=      5-min Rain = 0
KMC5 150040Z 13006KT 30/12 A3012 RMK A01 T03040119  RH  032%=      5-min Rain = 0
KMC5 150041Z 12007KT 30/12 A3012 RMK A01 T03040121  RH  032%=      5-min Rain = 0
KMC5 150042Z 11006KT 30/12 A3012 RMK A01 T03030120  RH  032%=      5-min Rain = 0
KMC5 150043Z 12009KT 30/12 A3012 RMK A01 T03030121  RH  033%=      5-min Rain = 0
KMC5 150044Z 12008KT 30/12 A3012 RMK A01 T03020123  RH  033%=      5-min Rain = 0
KMC5 150045Z 11009KT 30/12 A3012 RMK A01 T03020124  RH  034%=      5-min Rain = 0
KMC5 150046Z 11008KT 30/12 A3012 RMK A01 T03010123  RH  033%=      5-min Rain = 0
KMC5 150047Z 11008KT 30/12 A3012 RMK A01 T03000124  RH  034%=      5-min Rain = 0
KMC5 150048Z 11007KT 30/12 A3012 RMK A01 T03000124  RH  034%=      5-min Rain = 0
KMC5 150049Z 10007KT 30/13 A3012 RMK A01 T03000125  RH  034%=      5-min Rain = 0
KMC5 150050Z 10007KT 30/13 A3012 RMK A01 T02990125  RH  034%=      5-min Rain = 0
KMC5 150051Z 10007KT 30/13 A3012 RMK A01 T02990125  RH  034%=      5-min Rain = 0
KMC5 150052Z 11006KT 30/13 A3012 RMK A01 T02990125  RH  034%=      5-min Rain = 0
KMC5 150053Z 12006KT 30/13 A3012 RMK A01 T02980127  RH  035%=      5-min Rain = 0
KMC5 150054Z 12005KT 30/13 A3012 RMK A01 T02970128  RH  035%=      5-min Rain = 0
KMC5 150055Z 11006KT 30/13 A3012 RMK A01 T02970128  RH  036%=      5-min Rain = 0
KMC5 150056Z 12007KT 30/13 A3012 RMK A01 T02960127  RH  035%=      5-min Rain = 0
KMC5 150057Z 12006KT 30/13 A3012 RMK A01 T02960129  RH  036%=      5-min Rain = 0
KMC5 150058Z 12006KT 29/13 A3012 RMK A01 T02940128  RH  036%=      5-min Rain = 0
KMC5 150059Z 12005KT 29/13 A3012 RMK A01 T02930129  RH  036%=      5-min Rain = 0
KMC5 150100Z 12005KT 29/13 A3012 RMK A01 T02920130  RH  037%=      5-min Rain = 0
KMC5 150101Z 12005KT 29/13 A3012 RMK A01 T02900130  RH  037%=      5-min Rain = 0
KMC5 150102Z 12005KT 29/13 A3012 RMK A01 T02890130  RH  038%=      5-min Rain = 0
KMC5 150103Z 12005KT 29/13 A3012 RMK A01 T02880130  RH  038%=      5-min Rain = 0
KMC5 150104Z 13005KT 29/13 A3012 RMK A01 T02870131  RH  038%=      5-min Rain = 0
KMC5 150105Z 12006KT 29/13 A3012 RMK A01 T02860131  RH  038%=      5-min Rain = 0
KMC5 150106Z 12006KT 28/13 A3013 RMK A01 T02840130  RH  039%=      5-min Rain = 0
KMC5 150107Z 12005KT 28/13 A3013 RMK A01 T02840131  RH  039%=      5-min Rain = 0
KMC5 150108Z 13006KT 28/13 A3012 RMK A01 T02820131  RH  039%=      5-min Rain = 0
KMC5 150109Z 12006KT 28/13 A3012 RMK A01 T02810130  RH  039%=      5-min Rain = 0
KMC5 150110Z 12006KT 28/13 A3012 RMK A01 T02800131  RH  040%=      5-min Rain = 0
KMC5 150111Z 12006KT 28/13 A3012 RMK A01 T02790131  RH  040%=      5-min Rain = 0
KMC5 150112Z 12006KT 28/13 A3012 RMK A01 T02780131  RH  040%=      5-min Rain = 0
KMC5 150113Z 12005KT 28/13 A3012 RMK A01 T02780131  RH  040%=      5-min Rain = 0
KMC5 150114Z 12006KT 28/13 A3012 RMK A01 T02780132  RH  041%=      5-min Rain = 0
KMC5 150115Z 11005KT 28/13 A3012 RMK A01 T02770132  RH  041%=      5-min Rain = 0
KMC5 150116Z 11005KT 28/13 A3012 RMK A01 T02770131  RH  041%=      5-min Rain = 0
KMC5 150117Z 11005KT 28/13 A3013 RMK A01 T02770132  RH  041%=      5-min Rain = 0
KMC5 150118Z 12005KT 28/13 A3013 RMK A01 T02760132  RH  041%=      5-min Rain = 0
KMC5 150119Z 12005KT 28/13 A3013 RMK A01 T02750131  RH  041%=      5-min Rain = 0
KMC5 150120Z 12005KT 27/13 A3013 RMK A01 T02740131  RH  041%=      5-min Rain = 0
KMC5 150121Z 12005KT 27/13 A3013 RMK A01 T02740131  RH  041%=      5-min Rain = 0
KMC5 150122Z 12005KT 27/13 A3013 RMK A01 T02730131  RH  042%=      5-min Rain = 0
KMC5 150123Z 12006KT 27/13 A3013 RMK A01 T02720132  RH  042%=      5-min Rain = 0
KMC5 150124Z 11005KT 27/13 A3013 RMK A01 T02710132  RH  042%=      5-min Rain = 0
KMC5 150125Z 12006KT 27/13 A3013 RMK A01 T02710132  RH  042%=      5-min Rain = 0
KMC5 150126Z 12006KT 27/13 A3013 RMK A01 T02710132  RH  042%=      5-min Rain = 0
KMC5 150127Z 12006KT 27/13 A3013 RMK A01 T02700133  RH  043%=      5-min Rain = 0
KMC5 150128Z 12005KT 27/13 A3013 RMK A01 T02700132  RH  043%=      5-min Rain = 0
KMC5 150129Z 12005KT 27/13 A3013 RMK A01 T02700133  RH  043%=      5-min Rain = 0
KMC5 150130Z 12005KT 27/13 A3013 RMK A01 T02690133  RH  043%=      5-min Rain = 0
KMC5 150131Z 12005KT 27/13 A3013 RMK A01 T02690133  RH  043%=      5-min Rain = 0
KMC5 150132Z 12006KT 27/13 A3013 RMK A01 T02690133  RH  043%=      5-min Rain = 0
KMC5 150133Z 11006KT 27/13 A3013 RMK A01 T02690133  RH  043%=      5-min Rain = 0
KMC5 150134Z 12006KT 27/13 A3013 RMK A01 T02690133  RH  043%=      5-min Rain = 0
KMC5 150135Z 11005KT 27/13 A3013 RMK A01 T02690133  RH  043%=      5-min Rain = 0
KMC5 150136Z 12006KT 27/13 A3013 RMK A01 T02690134  RH  043%=      5-min Rain = 0
KMC5 150137Z 12005KT 27/13 A3013 RMK A01 T02680134  RH  044%=      5-min Rain = 0
KMC5 150138Z 12006KT 27/14 A3013 RMK A01 T02670135  RH  044%=      5-min Rain = 0
KMC5 150139Z 12006KT 27/14 A3014 RMK A01 T02660135  RH  044%=      5-min Rain = 0
KMC5 150140Z 12005KT 27/14 A3014 RMK A01 T02660135  RH  044%=      5-min Rain = 0
KMC5 150141Z 11006KT 27/14 A3014 RMK A01 T02650135  RH  045%=      5-min Rain = 0
KMC5 150142Z 12006KT 27/14 A3014 RMK A01 T02650135  RH  045%=      5-min Rain = 0
KMC5 150143Z 11006KT 27/14 A3013 RMK A01 T02650135  RH  045%=      5-min Rain = 0
KMC5 150144Z 11006KT 27/14 A3013 RMK A01 T02650136  RH  045%=      5-min Rain = 0
KMC5 150145Z 11006KT 27/14 A3014 RMK A01 T02650136  RH  045%=      5-min Rain = 0
KMC5 150146Z 11006KT 27/14 A3014 RMK A01 T02650137  RH  045%=      5-min Rain = 0
KMC5 150147Z 11006KT 26/14 A3014 RMK A01 T02640137  RH  045%=      5-min Rain = 0
KMC5 150148Z 11006KT 26/14 A3014 RMK A01 T02630137  RH  046%=      5-min Rain = 0
KMC5 150149Z 11006KT 26/14 A3014 RMK A01 T02630138  RH  046%=      5-min Rain = 0
KMC5 150150Z 11006KT 26/14 A3014 RMK A01 T02630137  RH  046%=      5-min Rain = 0
KMC5 150151Z 11006KT 26/14 A3014 RMK A01 T02630137  RH  046%=      5-min Rain = 0
KMC5 150152Z 11006KT 26/14 A3014 RMK A01 T02630137  RH  046%=      5-min Rain = 0
KMC5 150153Z 11006KT 26/14 A3014 RMK A01 T02630137  RH  046%=      5-min Rain = 0
KMC5 150154Z 11006KT 26/14 A3014 RMK A01 T02630136  RH  045%=      5-min Rain = 0
KMC5 150155Z 11006KT 26/14 A3014 RMK A01 T02630137  RH  046%=      5-min Rain = 0
KMC5 150156Z 11005KT 26/14 A3014 RMK A01 T02630137  RH  046%=      5-min Rain = 0
KMC5 150157Z 11006KT 26/14 A3014 RMK A01 T02620136  RH  046%=      5-min Rain = 0
KMC5 150158Z 11006KT 26/14 A3014 RMK A01 T02630136  RH  046%=      5-min Rain = 0
KMC5 150159Z 11005KT 26/14 A3014 RMK A01 T02630136  RH  046%=      5-min Rain = 0
KMC5 150200Z 11005KT 26/14 A3014 RMK A01 T02630136  RH  045%=      5-min Rain = 0
KMC5 150201Z 11005KT 26/14 A3014 RMK A01 T02640136  RH  045%=      5-min Rain = 0
KMC5 150202Z 12005KT 26/14 A3014 RMK A01 T02640136  RH  045%=      5-min Rain = 0
KMC5 150203Z 12005KT 26/14 A3014 RMK A01 T02640136  RH  045%=      5-min Rain = 0
KMC5 150204Z 11005KT 26/14 A3014 RMK A01 T02630136  RH  045%=      5-min Rain = 0
KMC5 150205Z 11006KT 26/14 A3014 RMK A01 T02630137  RH  046%=      5-min Rain = 0
KMC5 150206Z 11006KT 26/14 A3014 RMK A01 T02630137  RH  046%=      5-min Rain = 0
KMC5 150207Z 12006KT 26/14 A3014 RMK A01 T02620136  RH  046%=      5-min Rain = 0
KMC5 150208Z 12005KT 26/14 A3014 RMK A01 T02620137  RH  046%=      5-min Rain = 0
KMC5 150209Z 12005KT 26/14 A3014 RMK A01 T02620137  RH  046%=      5-min Rain = 0
KMC5 150210Z 12005KT 26/14 A3014 RMK A01 T02610137  RH  046%=      5-min Rain = 0
KMC5 150211Z 12005KT 26/14 A3014 RMK A01 T02600137  RH  047%=      5-min Rain = 0
KMC5 150212Z 12005KT 26/14 A3015 RMK A01 T02600138  RH  047%=      5-min Rain = 0
KMC5 150213Z 12006KT 26/14 A3015 RMK A01 T02590137  RH  047%=      5-min Rain = 0
KMC5 150214Z 12005KT 26/14 A3015 RMK A01 T02590137  RH  047%=      5-min Rain = 0
KMC5 150215Z 12006KT 26/14 A3015 RMK A01 T02590138  RH  047%=      5-min Rain = 0
KMC5 150216Z 12005KT 26/14 A3015 RMK A01 T02590138  RH  047%=      5-min Rain = 0
KMC5 150217Z 12005KT 26/14 A3015 RMK A01 T02580138  RH  047%=      5-min Rain = 0
KMC5 150218Z 12005KT 26/14 A3015 RMK A01 T02580138  RH  048%=      5-min Rain = 0
KMC5 150219Z 11005KT 26/14 A3015 RMK A01 T02570138  RH  048%=      5-min Rain = 0
KMC5 150220Z 11005KT 26/14 A3015 RMK A01 T02570138  RH  048%=      5-min Rain = 0
KMC5 150221Z 11005KT 26/14 A3015 RMK A01 T02560138  RH  048%=      5-min Rain = 0
KMC5 150222Z 11005KT 26/14 A3015 RMK A01 T02560138  RH  048%=      5-min Rain = 0
KMC5 150223Z 11005KT 26/14 A3015 RMK A01 T02570138  RH  048%=      5-min Rain = 0
KMC5 150224Z 11005KT 26/14 A3015 RMK A01 T02570138  RH  048%=      5-min Rain = 0
KMC5 150225Z 11005KT 26/14 A3015 RMK A01 T02570138  RH  048%=      5-min Rain = 0
KMC5 150226Z 11005KT 26/14 A3015 RMK A01 T02570138  RH  048%=      5-min Rain = 0
KMC5 150227Z 11006KT 26/14 A3015 RMK A01 T02570137  RH  047%=      5-min Rain = 0
KMC5 150228Z 11006KT 26/14 A3015 RMK A01 T02580137  RH  047%=      5-min Rain = 0
KMC5 150229Z 11005KT 26/14 A3015 RMK A01 T02590136  RH  047%=      5-min Rain = 0
KMC5 150230Z 11005KT 26/14 A3015 RMK A01 T02590135  RH  046%=      5-min Rain = 0
KMC5 150231Z 11005KT 26/14 A3015 RMK A01 T02600136  RH  046%=      5-min Rain = 0
KMC5 150232Z 12006KT 26/14 A3015 RMK A01 T02600135  RH  046%=      5-min Rain = 0
KMC5 150233Z 12006KT 26/14 A3015 RMK A01 T02600135  RH  046%=      5-min Rain = 0
KMC5 150234Z 12006KT 26/14 A3015 RMK A01 T02600136  RH  046%=      5-min Rain = 0
KMC5 150235Z 12005KT 26/14 A3015 RMK A01 T02590137  RH  047%=      5-min Rain = 0
KMC5 150236Z 12005KT 26/14 A3015 RMK A01 T02580137  RH  047%=      5-min Rain = 0
KMC5 150237Z 12005KT 26/14 A3015 RMK A01 T02570138  RH  048%=      5-min Rain = 0
KMC5 150238Z 12005KT 26/14 A3015 RMK A01 T02560138  RH  048%=      5-min Rain = 0
KMC5 150239Z 12005KT 26/14 A3015 RMK A01 T02550138  RH  048%=      5-min Rain = 0
KMC5 150240Z 12006KT 25/14 A3016 RMK A01 T02540137  RH  048%=      5-min Rain = 0
KMC5 150241Z 12005KT 25/14 A3016 RMK A01 T02540137  RH  048%=      5-min Rain = 0
KMC5 150242Z 12005KT 25/14 A3016 RMK A01 T02540136  RH  048%=      5-min Rain = 0
KMC5 150243Z 12005KT 26/14 A3016 RMK A01 T02550136  RH  047%=      5-min Rain = 0
KMC5 150244Z 12005KT 26/14 A3016 RMK A01 T02560136  RH  047%=      5-min Rain = 0
KMC5 150245Z 12005KT 26/14 A3016 RMK A01 T02560136  RH  047%=      5-min Rain = 0
KMC5 150246Z 12005KT 26/14 A3016 RMK A01 T02560136  RH  047%=      5-min Rain = 0
KMC5 150247Z 12005KT 26/14 A3016 RMK A01 T02560136  RH  047%=      5-min Rain = 0
KMC5 150248Z 12005KT 26/14 A3016 RMK A01 T02560136  RH  047%=      5-min Rain = 0
KMC5 150249Z 12005KT 26/14 A3016 RMK A01 T02560136  RH  048%=      5-min Rain = 0
KMC5 150250Z 12005KT 26/14 A3016 RMK A01 T02560136  RH  048%=      5-min Rain = 0
KMC5 150251Z 12005KT 26/14 A3016 RMK A01 T02550136  RH  048%=      5-min Rain = 0
KMC5 150252Z 12005KT 25/14 A3016 RMK A01 T02540136  RH  048%=      5-min Rain = 0
KMC5 150253Z 12005KT 25/14 A3016 RMK A01 T02540136  RH  048%=      5-min Rain = 0
KMC5 150254Z 12006KT 25/14 A3016 RMK A01 T02530136  RH  048%=      5-min Rain = 0
KMC5 150255Z 12006KT 25/14 A3016 RMK A01 T02530136  RH  048%=      5-min Rain = 0
KMC5 150256Z 12006KT 25/14 A3016 RMK A01 T02530136  RH  048%=      5-min Rain = 0
KMC5 150257Z 12006KT 25/14 A3016 RMK A01 T02530135  RH  048%=      5-min Rain = 0
KMC5 150258Z 12006KT 25/14 A3016 RMK A01 T02530135  RH  048%=      5-min Rain = 0
KMC5 150259Z 12006KT 25/13 A3016 RMK A01 T02540134  RH  048%=      5-min Rain = 0
KMC5 150300Z 12006KT 25/14 A3016 RMK A01 T02540135  RH  048%=      5-min Rain = 0
KMC5 150301Z 12005KT 25/13 A3016 RMK A01 T02540133  RH  047%=      5-min Rain = 0
KMC5 150302Z 12006KT 25/13 A3016 RMK A01 T02540133  RH  047%=      5-min Rain = 0
KMC5 150303Z 11006KT 26/13 A3016 RMK A01 T02550134  RH  047%=      5-min Rain = 0
KMC5 150304Z 11005KT 26/13 A3016 RMK A01 T02550133  RH  047%=      5-min Rain = 0
KMC5 150305Z 11005KT 26/13 A3016 RMK A01 T02550133  RH  047%=      5-min Rain = 0
KMC5 150306Z 11006KT 26/13 A3016 RMK A01 T02550133  RH  047%=      5-min Rain = 0
KMC5 150307Z 11006KT 26/13 A3016 RMK A01 T02550133  RH  047%=      5-min Rain = 0
KMC5 150308Z 11006KT 26/13 A3017 RMK A01 T02550133  RH  047%=      5-min Rain = 0
KMC5 150309Z 11006KT 25/13 A3017 RMK A01 T02540133  RH  047%=      5-min Rain = 0
KMC5 150310Z 11006KT 25/13 A3017 RMK A01 T02540133  RH  047%=      5-min Rain = 0
KMC5 150311Z 12006KT 25/13 A3017 RMK A01 T02530133  RH  047%=      5-min Rain = 0
KMC5 150312Z 12006KT 25/13 A3017 RMK A01 T02530134  RH  048%=      5-min Rain = 0
KMC5 150313Z 12006KT 25/13 A3017 RMK A01 T02520134  RH  048%=      5-min Rain = 0
KMC5 150314Z 12006KT 25/13 A3017 RMK A01 T02510134  RH  048%=      5-min Rain = 0
KMC5 150315Z 12006KT 25/13 A3017 RMK A01 T02500134  RH  048%=      5-min Rain = 0
KMC5 150316Z 12006KT 25/13 A3017 RMK A01 T02500134  RH  048%=      5-min Rain = 0
KMC5 150317Z 12006KT 25/13 A3016 RMK A01 T02500133  RH  048%=      5-min Rain = 0
KMC5 150318Z 12005KT 25/13 A3016 RMK A01 T02510133  RH  048%=      5-min Rain = 0
KMC5 150319Z 12006KT 25/13 A3016 RMK A01 T02510133  RH  048%=      5-min Rain = 0
KMC5 150320Z 12005KT 25/13 A3017 RMK A01 T02510133  RH  048%=      5-min Rain = 0
KMC5 150321Z 12005KT 25/13 A3017 RMK A01 T02520133  RH  048%=      5-min Rain = 0
KMC5 150322Z 13005KT 25/13 A3017 RMK A01 T02520133  RH  048%=      5-min Rain = 0
KMC5 150323Z 13005KT 25/13 A3017 RMK A01 T02520133  RH  048%=      5-min Rain = 0
KMC5 150324Z 13004KT 25/13 A3017 RMK A01 T02520132  RH  048%=      5-min Rain = 0
KMC5 150325Z 13006KT 25/13 A3017 RMK A01 T02520133  RH  048%=      5-min Rain = 0
KMC5 150326Z 13005KT 25/13 A3017 RMK A01 T02520133  RH  048%=      5-min Rain = 0
KMC5 150327Z 12006KT 25/13 A3017 RMK A01 T02520133  RH  048%=      5-min Rain = 0
KMC5 150328Z 12005KT 25/13 A3017 RMK A01 T02520134  RH  048%=      5-min Rain = 0
KMC5 150329Z 12006KT 25/13 A3017 RMK A01 T02520134  RH  048%=      5-min Rain = 0
KMC5 150330Z 12006KT 25/14 A3017 RMK A01 T02520135  RH  048%=      5-min Rain = 0
KMC5 150331Z 12006KT 25/14 A3017 RMK A01 T02520135  RH  048%=      5-min Rain = 0
KMC5 150332Z 12005KT 25/14 A3017 RMK A01 T02520135  RH  048%=      5-min Rain = 0
KMC5 150333Z 12005KT 25/14 A3017 RMK A01 T02520135  RH  048%=      5-min Rain = 0
KMC5 150334Z 12006KT 25/14 A3017 RMK A01 T02520136  RH  048%=      5-min Rain = 0
KMC5 150335Z 12005KT 25/14 A3017 RMK A01 T02520137  RH  049%=      5-min Rain = 0
KMC5 150336Z 12006KT 25/14 A3017 RMK A01 T02520138  RH  049%=      5-min Rain = 0
KMC5 150337Z 12005KT 25/14 A3017 RMK A01 T02530138  RH  049%=      5-min Rain = 0
KMC5 150338Z 12005KT 25/14 A3017 RMK A01 T02530138  RH  049%=      5-min Rain = 0
KMC5 150339Z 12006KT 25/14 A3017 RMK A01 T02530140  RH  049%=      5-min Rain = 0
KMC5 150340Z 12006KT 25/14 A3017 RMK A01 T02530141  RH  050%=      5-min Rain = 0
KMC5 150341Z 12006KT 25/14 A3017 RMK A01 T02530141  RH  050%=      5-min Rain = 0
KMC5 150342Z 12006KT 25/14 A3018 RMK A01 T02540142  RH  050%=      5-min Rain = 0
KMC5 150343Z 12005KT 25/14 A3018 RMK A01 T02540142  RH  050%=      5-min Rain = 0
KMC5 150344Z 12006KT 25/14 A3018 RMK A01 T02530143  RH  051%=      5-min Rain = 0
KMC5 150345Z 12006KT 25/14 A3018 RMK A01 T02520144  RH  051%=      5-min Rain = 0
KMC5 150346Z 12006KT 25/15 A3018 RMK A01 T02520145  RH  051%=      5-min Rain = 0
KMC5 150347Z 13007KT 25/15 A3018 RMK A01 T02520146  RH  052%=      5-min Rain = 0
KMC5 150348Z 12006KT 25/15 A3018 RMK A01 T02510147  RH  052%=      5-min Rain = 0
KMC5 150349Z 13007KT 25/15 A3018 RMK A01 T02510147  RH  053%=      5-min Rain = 0
KMC5 150350Z 13009KT 25/15 A3018 RMK A01 T02500149  RH  053%=      5-min Rain = 0
KMC5 150351Z 13006KT 25/15 A3018 RMK A01 T02520151  RH  053%=      5-min Rain = 0
KMC5 150352Z 13007KT 25/15 A3018 RMK A01 T02530151  RH  053%=      5-min Rain = 0
KMC5 150353Z 13007KT 25/15 A3018 RMK A01 T02520151  RH  053%=      5-min Rain = 0
KMC5 150354Z 14007KT 25/15 A3018 RMK A01 T02520152  RH  054%=      5-min Rain = 0
KMC5 150355Z 14007KT 25/15 A3018 RMK A01 T02510152  RH  054%=      5-min Rain = 0
KMC5 150356Z 13006KT 25/15 A3018 RMK A01 T02500153  RH  055%=      5-min Rain = 0
KMC5 150357Z 14006KT 25/15 A3018 RMK A01 T02500153  RH  055%=      5-min Rain = 0
KMC5 150358Z 13006KT 25/15 A3018 RMK A01 T02510154  RH  055%=      5-min Rain = 0
KMC5 150359Z 13006KT 25/15 A3019 RMK A01 T02500154  RH  055%=      5-min Rain = 0
KMC5 150400Z 13007KT 25/16 A3019 RMK A01 T02500155  RH  056%=      5-min Rain = 0
KMC5 150401Z 14006KT 25/16 A3019 RMK A01 T02500156  RH  056%=      5-min Rain = 0
KMC5 150402Z 14008KT 25/16 A3019 RMK A01 T02500156  RH  056%=      5-min Rain = 0
KMC5 150403Z 14007KT 25/16 A3019 RMK A01 T02490156  RH  056%=      5-min Rain = 0
KMC5 150404Z 13008KT 25/16 A3019 RMK A01 T02490156  RH  056%=      5-min Rain = 0
KMC5 150405Z 13007KT 25/16 A3019 RMK A01 T02490156  RH  056%=      5-min Rain = 0
KMC5 150406Z 14007KT 25/16 A3019 RMK A01 T02490156  RH  056%=      5-min Rain = 0
KMC5 150407Z 14007KT 25/16 A3019 RMK A01 T02490156  RH  056%=      5-min Rain = 0
KMC5 150408Z 15007KT 25/16 A3019 RMK A01 T02490156  RH  056%=      5-min Rain = 0
KMC5 150409Z 14007KT 25/16 A3019 RMK A01 T02490157  RH  057%=      5-min Rain = 0
KMC5 150410Z 14007KT 25/16 A3019 RMK A01 T02480158  RH  057%=      5-min Rain = 0
KMC5 150411Z 14007KT 25/16 A3019 RMK A01 T02480158  RH  057%=      5-min Rain = 0
KMC5 150412Z 14007KT 25/16 A3019 RMK A01 T02480158  RH  057%=      5-min Rain = 0
KMC5 150413Z 14007KT 25/16 A3019 RMK A01 T02470158  RH  058%=      5-min Rain = 0
KMC5 150414Z 15006KT 25/16 A3019 RMK A01 T02470159  RH  058%=      5-min Rain = 0
KMC5 150415Z 14006KT 25/16 A3019 RMK A01 T02470159  RH  058%=      5-min Rain = 0
KMC5 150416Z 14007KT 25/16 A3019 RMK A01 T02470159  RH  058%=      5-min Rain = 0
KMC5 150417Z 14006KT 25/16 A3019 RMK A01 T02460159  RH  058%=      5-min Rain = 0
KMC5 150418Z 14006KT 25/16 A3019 RMK A01 T02460160  RH  059%=      5-min Rain = 0
KMC5 150419Z 14007KT 25/16 A3019 RMK A01 T02460160  RH  059%=      5-min Rain = 0
KMC5 150420Z 14006KT 25/16 A3019 RMK A01 T02460160  RH  059%=      5-min Rain = 0
KMC5 150421Z 14005KT 25/16 A3019 RMK A01 T02460161  RH  059%=      5-min Rain = 0
KMC5 150422Z 13006KT 25/16 A3019 RMK A01 T02450161  RH  059%=      5-min Rain = 0
KMC5 150423Z 14006KT 25/16 A3019 RMK A01 T02450161  RH  059%=      5-min Rain = 0
KMC5 150424Z 14006KT 25/16 A3019 RMK A01 T02450161  RH  060%=      5-min Rain = 0
KMC5 150425Z 14006KT 24/16 A3019 RMK A01 T02440161  RH  060%=      5-min Rain = 0
KMC5 150426Z 14007KT 24/16 A3019 RMK A01 T02440161  RH  060%=      5-min Rain = 0
KMC5 150427Z 14006KT 25/16 A3019 RMK A01 T02450162  RH  060%=      5-min Rain = 0
KMC5 150428Z 15005KT 25/16 A3019 RMK A01 T02450161  RH  060%=      5-min Rain = 0
KMC5 150429Z 14005KT 25/16 A3019 RMK A01 T02450162  RH  060%=      5-min Rain = 0
KMC5 150430Z 15005KT 25/16 A3019 RMK A01 T02450162  RH  060%=      5-min Rain = 0
KMC5 150431Z 14005KT 25/16 A3019 RMK A01 T02450162  RH  060%=      5-min Rain = 0
KMC5 150432Z 13004KT 24/16 A3019 RMK A01 T02440162  RH  060%=      5-min Rain = 0
KMC5 150433Z 14005KT 24/16 A3019 RMK A01 T02440162  RH  060%=      5-min Rain = 0
KMC5 150434Z 14005KT 24/16 A3019 RMK A01 T02430162  RH  060%=      5-min Rain = 0
KMC5 150435Z 14005KT 24/16 A3019 RMK A01 T02420162  RH  061%=      5-min Rain = 0
KMC5 150436Z 13006KT 24/16 A3019 RMK A01 T02420162  RH  061%=      5-min Rain = 0
KMC5 150437Z 14006KT 24/16 A3019 RMK A01 T02410162  RH  061%=      5-min Rain = 0
KMC5 150438Z 13006KT 24/16 A3019 RMK A01 T02410162  RH  061%=      5-min Rain = 0
KMC5 150439Z 13006KT 24/16 A3019 RMK A01 T02410162  RH  061%=      5-min Rain = 0
KMC5 150440Z 13007KT 24/16 A3019 RMK A01 T02420162  RH  061%=      5-min Rain = 0
KMC5 150441Z 13007KT 24/16 A3019 RMK A01 T02420162  RH  061%=      5-min Rain = 0
KMC5 150442Z 13006KT 24/16 A3019 RMK A01 T02430163  RH  061%=      5-min Rain = 0
KMC5 150443Z 13006KT 24/16 A3019 RMK A01 T02430163  RH  061%=      5-min Rain = 0
KMC5 150444Z 13006KT 24/16 A3019 RMK A01 T02430163  RH  061%=      5-min Rain = 0
KMC5 150445Z 13006KT 24/16 A3019 RMK A01 T02420163  RH  061%=      5-min Rain = 0
KMC5 150446Z 13006KT 24/16 A3019 RMK A01 T02420163  RH  061%=      5-min Rain = 0
KMC5 150447Z 13006KT 24/16 A3019 RMK A01 T02420163  RH  061%=      5-min Rain = 0
KMC5 150448Z 14005KT 24/16 A3019 RMK A01 T02410163  RH  061%=      5-min Rain = 0
KMC5 150449Z 13006KT 24/16 A3019 RMK A01 T02410162  RH  061%=      5-min Rain = 0
KMC5 150450Z 13005KT 24/16 A3019 RMK A01 T02410162  RH  061%=      5-min Rain = 0
KMC5 150451Z 13005KT 24/16 A3019 RMK A01 T02420163  RH  061%=      5-min Rain = 0
KMC5 150452Z 13006KT 24/16 A3019 RMK A01 T02410163  RH  062%=      5-min Rain = 0
KMC5 150453Z 13006KT 24/16 A3019 RMK A01 T02400162  RH  062%=      5-min Rain = 0
KMC5 150454Z 12006KT 24/16 A3019 RMK A01 T02410163  RH  062%=      5-min Rain = 0
KMC5 150455Z 13006KT 24/16 A3019 RMK A01 T02410163  RH  062%=      5-min Rain = 0
KMC5 150456Z 13005KT 24/16 A3019 RMK A01 T02400163  RH  062%=      5-min Rain = 0
KMC5 150457Z 13005KT 24/16 A3019 RMK A01 T02400163  RH  062%=      5-min Rain = 0
KMC5 150458Z 13005KT 24/16 A3019 RMK A01 T02400162  RH  062%=      5-min Rain = 0
KMC5 150459Z 13005KT 24/16 A3019 RMK A01 T02400162  RH  062%=      5-min Rain = 0

Page generated in 0.1216 seconds.